Observation data for Menard on 08/14/2019      Previous  Date  Next       Current Mesonet Observations  Soil Data  Daily Summary Page  Observations in Plain Language
KMD1 140500Z 13003KT 30/18 A2999 RMK A01 T02950178  RH  049%=      5-min Rain = 0
KMD1 140501Z 13004KT 30/18 A2999 RMK A01 T02950177  RH  049%=      5-min Rain = 0
KMD1 140502Z 13004KT 30/18 A2999 RMK A01 T02960178  RH  049%=      5-min Rain = 0
KMD1 140503Z 13004KT 30/18 A2999 RMK A01 T02960177  RH  049%=      5-min Rain = 0
KMD1 140504Z 13004KT 30/18 A2999 RMK A01 T02960178  RH  049%=      5-min Rain = 0
KMD1 140505Z 12004KT 30/18 A2999 RMK A01 T02950178  RH  049%=      5-min Rain = 0
KMD1 140506Z 11003KT 29/18 A2999 RMK A01 T02940178  RH  050%=      5-min Rain = 0
KMD1 140507Z 11003KT 29/18 A2999 RMK A01 T02940179  RH  050%=      5-min Rain = 0
KMD1 140508Z 12003KT 29/18 A2999 RMK A01 T02930178  RH  050%=      5-min Rain = 0
KMD1 140509Z 12003KT 29/18 A2999 RMK A01 T02930178  RH  050%=      5-min Rain = 0
KMD1 140510Z 12003KT 29/18 A2999 RMK A01 T02920178  RH  050%=      5-min Rain = 0
KMD1 140522Z 00000KT 29/18 A30 RMK A01 T02870179  RH  052%=      5-min Rain = 0
KMD1 140523Z 00000KT 29/18 A30 RMK A01 T02870179  RH  052%=      5-min Rain = 0
KMD1 140524Z 00000KT 29/18 A30 RMK A01 T02870179  RH  052%=      5-min Rain = 0
KMD1 140525Z 00000KT 29/18 A30 RMK A01 T02860179  RH  052%=      5-min Rain = 0
KMD1 140526Z 11000KT 29/18 A30 RMK A01 T02860179  RH  052%=      5-min Rain = 0
KMD1 140527Z 11000KT 29/18 A30 RMK A01 T02850179  RH  052%=      5-min Rain = 0
KMD1 140528Z 00000KT 29/18 A30 RMK A01 T02860179  RH  052%=      5-min Rain = 0
KMD1 140529Z 11001KT 29/18 A30 RMK A01 T02870179  RH  052%=      5-min Rain = 0
KMD1 140530Z 12002KT 29/18 A30 RMK A01 T02880180  RH  052%=      5-min Rain = 0
KMD1 140531Z 11001KT 29/18 A30 RMK A01 T02890180  RH  052%=      5-min Rain = 0
KMD1 140532Z 10002KT 29/18 A30 RMK A01 T02900180  RH  052%=      5-min Rain = 0
KMD1 140533Z 08002KT 29/18 A30 RMK A01 T02900180  RH  051%=      5-min Rain = 0
KMD1 140534Z 07001KT 29/18 A30 RMK A01 T02900181  RH  052%=      5-min Rain = 0
KMD1 140535Z 08001KT 29/18 A30 RMK A01 T02880182  RH  052%=      5-min Rain = 0
KMD1 140536Z 08002KT 29/18 A30 RMK A01 T02850182  RH  054%=      5-min Rain = 0
KMD1 140537Z 07002KT 28/18 A30 RMK A01 T02820182  RH  054%=      5-min Rain = 0
KMD1 140538Z 07002KT 28/18 A30 RMK A01 T02790182  RH  056%=      5-min Rain = 0
KMD1 140539Z 06002KT 28/18 A30 RMK A01 T02760183  RH  057%=      5-min Rain = 0
KMD1 140540Z 04002KT 27/18 A30 RMK A01 T02730183  RH  058%=      5-min Rain = 0
KMD1 140541Z 04003KT 27/18 A30 RMK A01 T02710184  RH  059%=      5-min Rain = 0
KMD1 140542Z 05003KT 27/19 A30 RMK A01 T02710185  RH  059%=      5-min Rain = 0
KMD1 140543Z 05003KT 27/19 A30 RMK A01 T02710186  RH  060%=      5-min Rain = 0
KMD1 140544Z 05003KT 27/19 A30 RMK A01 T02710186  RH  060%=      5-min Rain = 0
KMD1 140545Z 05003KT 27/19 A30 RMK A01 T02710186  RH  060%=      5-min Rain = 0
KMD1 140546Z 06003KT 27/19 A30 RMK A01 T02720185  RH  059%=      5-min Rain = 0
KMD1 140547Z 06003KT 27/18 A30 RMK A01 T02710184  RH  059%=      5-min Rain = 0
KMD1 140548Z 06003KT 27/18 A30 RMK A01 T02730184  RH  058%=      5-min Rain = 0
KMD1 140549Z 06003KT 27/18 A30 RMK A01 T02740183  RH  058%=      5-min Rain = 0
KMD1 140550Z 06003KT 27/18 A30 RMK A01 T02740183  RH  057%=      5-min Rain = 0
KMD1 140551Z 06003KT 27/18 A30 RMK A01 T02740183  RH  057%=      5-min Rain = 0
KMD1 140552Z 07003KT 27/18 A2999 RMK A01 T02740182  RH  057%=      5-min Rain = 0
KMD1 140553Z 06003KT 27/18 A2999 RMK A01 T02740183  RH  057%=      5-min Rain = 0
KMD1 140554Z 07003KT 27/18 A2999 RMK A01 T02740182  RH  057%=      5-min Rain = 0
KMD1 140555Z 07003KT 27/18 A2999 RMK A01 T02740182  RH  057%=      5-min Rain = 0
KMD1 140556Z 06003KT 27/18 A2999 RMK A01 T02740182  RH  057%=      5-min Rain = 0
KMD1 140557Z 07002KT 27/18 A2999 RMK A01 T02740182  RH  057%=      5-min Rain = 0
KMD1 140558Z 07002KT 27/18 A2999 RMK A01 T02740182  RH  057%=      5-min Rain = 0
KMD1 140559Z 07001KT 27/18 A2999 RMK A01 T02740181  RH  057%=      5-min Rain = 0
KMD1 140600Z 08000KT 27/18 A2999 RMK A01 T02740182  RH  057%=      5-min Rain = 0
KMD1 140601Z 09000KT 27/18 A2999 RMK A01 T02730182  RH  057%=      5-min Rain = 0
KMD1 140602Z 11001KT 27/18 A2999 RMK A01 T02730181  RH  057%=      5-min Rain = 0
KMD1 140603Z 00000KT 27/18 A2999 RMK A01 T02720181  RH  058%=      5-min Rain = 0
KMD1 140604Z 00000KT 27/18 A30 RMK A01 T02720181  RH  057%=      5-min Rain = 0
KMD1 140605Z 22000KT 27/18 A30 RMK A01 T02710181  RH  058%=      5-min Rain = 0
KMD1 140606Z 19000KT 27/18 A30 RMK A01 T02710180  RH  058%=      5-min Rain = 0
KMD1 140607Z 23000KT 27/18 A30 RMK A01 T02710180  RH  057%=      5-min Rain = 0
KMD1 140608Z 14001KT 27/18 A30 RMK A01 T02710180  RH  058%=      5-min Rain = 0
KMD1 140609Z 14000KT 27/18 A30 RMK A01 T02710180  RH  058%=      5-min Rain = 0
KMD1 140610Z 17000KT 27/18 A30 RMK A01 T02710180  RH  058%=      5-min Rain = 0
KMD1 140611Z 00000KT 27/18 A30 RMK A01 T02710180  RH  057%=      5-min Rain = 0
KMD1 140612Z 15000KT 27/18 A30 RMK A01 T02710180  RH  057%=      5-min Rain = 0
KMD1 140613Z 12000KT 27/18 A30 RMK A01 T02710180  RH  057%=      5-min Rain = 0
KMD1 140614Z 18000KT 27/18 A30 RMK A01 T02710179  RH  057%=      5-min Rain = 0
KMD1 140615Z 13001KT 27/18 A30 RMK A01 T02710179  RH  057%=      5-min Rain = 0
KMD1 140616Z 12001KT 27/18 A30 RMK A01 T02710180  RH  057%=      5-min Rain = 0
KMD1 140617Z 12001KT 27/18 A30 RMK A01 T02710179  RH  057%=      5-min Rain = 0
KMD1 140618Z 14001KT 27/18 A30 RMK A01 T02710180  RH  057%=      5-min Rain = 0
KMD1 140619Z 10001KT 27/18 A30 RMK A01 T02710180  RH  058%=      5-min Rain = 0
KMD1 140620Z 11002KT 27/18 A30 RMK A01 T02700179  RH  058%=      5-min Rain = 0
KMD1 140621Z 16001KT 27/18 A30 RMK A01 T02700180  RH  058%=      5-min Rain = 0
KMD1 140622Z 18002KT 27/18 A30 RMK A01 T02700180  RH  058%=      5-min Rain = 0
KMD1 140623Z 20001KT 27/18 A30 RMK A01 T02700181  RH  058%=      5-min Rain = 0
KMD1 140624Z 21002KT 27/18 A30 RMK A01 T02690180  RH  058%=      5-min Rain = 0
KMD1 140625Z 20002KT 27/18 A30 RMK A01 T02690180  RH  058%=      5-min Rain = 0
KMD1 140626Z 20002KT 27/18 A30 RMK A01 T02700179  RH  058%=      5-min Rain = 0
KMD1 140627Z 23002KT 27/18 A30 RMK A01 T02710180  RH  057%=      5-min Rain = 0
KMD1 140628Z 22001KT 27/18 A30 RMK A01 T02710179  RH  057%=      5-min Rain = 0
KMD1 140629Z 22001KT 27/18 A30 RMK A01 T02710179  RH  057%=      5-min Rain = 0
KMD1 140630Z 23000KT 27/18 A30 RMK A01 T02720179  RH  057%=      5-min Rain = 0
KMD1 140631Z 18001KT 27/18 A30 RMK A01 T02720179  RH  057%=      5-min Rain = 0
KMD1 140632Z 19003KT 27/18 A30 RMK A01 T02720179  RH  057%=      5-min Rain = 0
KMD1 140633Z 15002KT 27/18 A30 RMK A01 T02720177  RH  056%=      5-min Rain = 0
KMD1 140634Z 17002KT 27/18 A30 RMK A01 T02740178  RH  056%=      5-min Rain = 0
KMD1 140635Z 15002KT 27/18 A30 RMK A01 T02730177  RH  056%=      5-min Rain = 0
KMD1 140636Z 16003KT 27/18 A30 RMK A01 T02740176  RH  055%=      5-min Rain = 0
KMD1 140637Z 16003KT 28/18 A30 RMK A01 T02750177  RH  055%=      5-min Rain = 0
KMD1 140638Z 16004KT 28/18 A30 RMK A01 T02750177  RH  055%=      5-min Rain = 0
KMD1 140639Z 17004KT 28/18 A30 RMK A01 T02750178  RH  055%=      5-min Rain = 0
KMD1 140640Z 17005KT 28/18 A30 RMK A01 T02760178  RH  055%=      5-min Rain = 0
KMD1 140641Z 17004KT 28/18 A30 RMK A01 T02780179  RH  055%=      5-min Rain = 0
KMD1 140642Z 16005KT 28/18 A30 RMK A01 T02790179  RH  054%=      5-min Rain = 0
KMD1 140643Z 15005KT 28/18 A30 RMK A01 T02790179  RH  055%=      5-min Rain = 0
KMD1 140644Z 17004KT 28/18 A30 RMK A01 T02800180  RH  054%=      5-min Rain = 0
KMD1 140645Z 17005KT 28/18 A30 RMK A01 T02810180  RH  054%=      5-min Rain = 0
KMD1 140646Z 17004KT 28/18 A30 RMK A01 T02820180  RH  054%=      5-min Rain = 0
KMD1 140647Z 17004KT 28/18 A30 RMK A01 T02830181  RH  054%=      5-min Rain = 0
KMD1 140648Z 16003KT 28/18 A30 RMK A01 T02840181  RH  053%=      5-min Rain = 0
KMD1 140649Z 16004KT 29/18 A30 RMK A01 T02850181  RH  053%=      5-min Rain = 0
KMD1 140650Z 17004KT 29/18 A30 RMK A01 T02850181  RH  053%=      5-min Rain = 0
KMD1 140651Z 17005KT 29/18 A30 RMK A01 T02850182  RH  053%=      5-min Rain = 0
KMD1 140652Z 16004KT 29/18 A30 RMK A01 T02860182  RH  053%=      5-min Rain = 0
KMD1 140653Z 16005KT 29/18 A30 RMK A01 T02870182  RH  053%=      5-min Rain = 0
KMD1 140654Z 17005KT 29/18 A30 RMK A01 T02880182  RH  053%=      5-min Rain = 0
KMD1 140655Z 17005KT 29/18 A30 RMK A01 T02880182  RH  053%=      5-min Rain = 0
KMD1 140656Z 16005KT 29/18 A30 RMK A01 T02880183  RH  053%=      5-min Rain = 0
KMD1 140657Z 17003KT 29/18 A30 RMK A01 T02880182  RH  053%=      5-min Rain = 0
KMD1 140658Z 15003KT 29/18 A30 RMK A01 T02880183  RH  053%=      5-min Rain = 0
KMD1 140659Z 14003KT 29/18 A3001 RMK A01 T02870183  RH  053%=      5-min Rain = 0
KMD1 140700Z 15004KT 29/18 A3001 RMK A01 T02870183  RH  053%=      5-min Rain = 0
KMD1 140701Z 17003KT 29/18 A3001 RMK A01 T02870183  RH  053%=      5-min Rain = 0
KMD1 140702Z 18002KT 29/18 A3001 RMK A01 T02870183  RH  054%=      5-min Rain = 0
KMD1 140703Z 15002KT 29/18 A3001 RMK A01 T02860183  RH  054%=      5-min Rain = 0
KMD1 140704Z 14002KT 29/18 A3001 RMK A01 T02850183  RH  054%=      5-min Rain = 0
KMD1 140705Z 15002KT 29/18 A3001 RMK A01 T02850182  RH  054%=      5-min Rain = 0
KMD1 140706Z 15001KT 28/18 A3001 RMK A01 T02840182  RH  054%=      5-min Rain = 0
KMD1 140707Z 17001KT 28/18 A3001 RMK A01 T02830182  RH  054%=      5-min Rain = 0
KMD1 140708Z 14001KT 28/18 A3001 RMK A01 T02820182  RH  054%=      5-min Rain = 0
KMD1 140709Z 11001KT 28/18 A3001 RMK A01 T02800182  RH  055%=      5-min Rain = 0
KMD1 140710Z 10001KT 28/18 A3001 RMK A01 T02790182  RH  055%=      5-min Rain = 0
KMD1 140711Z 11001KT 28/18 A3001 RMK A01 T02770181  RH  056%=      5-min Rain = 0
KMD1 140712Z 08000KT 28/18 A3001 RMK A01 T02760181  RH  056%=      5-min Rain = 0
KMD1 140713Z 14001KT 28/18 A3001 RMK A01 T02750181  RH  057%=      5-min Rain = 0
KMD1 140714Z 19001KT 27/18 A3001 RMK A01 T02740181  RH  057%=      5-min Rain = 0
KMD1 140715Z 18003KT 27/18 A3001 RMK A01 T02740181  RH  057%=      5-min Rain = 0
KMD1 140716Z 21001KT 27/18 A3001 RMK A01 T02740182  RH  057%=      5-min Rain = 0
KMD1 140717Z 20003KT 27/18 A3001 RMK A01 T02740182  RH  057%=      5-min Rain = 0
KMD1 140718Z 17004KT 28/18 A3001 RMK A01 T02760183  RH  057%=      5-min Rain = 0
KMD1 140719Z 17004KT 28/18 A3001 RMK A01 T02770183  RH  056%=      5-min Rain = 0
KMD1 140720Z 17003KT 28/18 A3001 RMK A01 T02790184  RH  056%=      5-min Rain = 0
KMD1 140721Z 17004KT 28/18 A3001 RMK A01 T02800184  RH  056%=      5-min Rain = 0
KMD1 140722Z 17004KT 28/19 A3001 RMK A01 T02810185  RH  056%=      5-min Rain = 0
KMD1 140723Z 17004KT 28/19 A3001 RMK A01 T02810185  RH  056%=      5-min Rain = 0
KMD1 140724Z 17004KT 28/19 A3001 RMK A01 T02810185  RH  056%=      5-min Rain = 0
KMD1 140725Z 18004KT 28/19 A3001 RMK A01 T02810186  RH  056%=      5-min Rain = 0
KMD1 140726Z 17004KT 28/19 A3001 RMK A01 T02810187  RH  056%=      5-min Rain = 0
KMD1 140727Z 17004KT 28/19 A3001 RMK A01 T02820187  RH  056%=      5-min Rain = 0
KMD1 140728Z 18004KT 28/19 A3001 RMK A01 T02810187  RH  057%=      5-min Rain = 0
KMD1 140729Z 18004KT 28/19 A3001 RMK A01 T02810187  RH  057%=      5-min Rain = 0
KMD1 140730Z 18003KT 28/19 A3001 RMK A01 T02810187  RH  057%=      5-min Rain = 0
KMD1 140731Z 17003KT 28/19 A3001 RMK A01 T02810187  RH  057%=      5-min Rain = 0
KMD1 140732Z 18003KT 28/19 A3001 RMK A01 T02820187  RH  057%=      5-min Rain = 0
KMD1 140733Z 19002KT 28/19 A3001 RMK A01 T02820188  RH  057%=      5-min Rain = 0
KMD1 140734Z 18003KT 28/19 A3001 RMK A01 T02820188  RH  057%=      5-min Rain = 0
KMD1 140735Z 20002KT 28/19 A3001 RMK A01 T02810188  RH  057%=      5-min Rain = 0
KMD1 140736Z 20003KT 28/19 A3001 RMK A01 T02810188  RH  057%=      5-min Rain = 0
KMD1 140737Z 19002KT 28/19 A3001 RMK A01 T02810188  RH  057%=      5-min Rain = 0
KMD1 140738Z 19003KT 28/19 A3001 RMK A01 T02810188  RH  057%=      5-min Rain = 0
KMD1 140739Z 18002KT 28/19 A3001 RMK A01 T02810188  RH  057%=      5-min Rain = 0
KMD1 140740Z 16001KT 28/19 A3001 RMK A01 T02810188  RH  057%=      5-min Rain = 0
KMD1 140741Z 17003KT 28/19 A3001 RMK A01 T02800188  RH  057%=      5-min Rain = 0
KMD1 140742Z 16002KT 28/19 A3001 RMK A01 T02800188  RH  057%=      5-min Rain = 0
KMD1 140743Z 16002KT 28/19 A3001 RMK A01 T02790188  RH  057%=      5-min Rain = 0
KMD1 140744Z 15002KT 28/19 A3001 RMK A01 T02790188  RH  058%=      5-min Rain = 0
KMD1 140745Z 14001KT 28/19 A3001 RMK A01 T02790188  RH  058%=      5-min Rain = 0
KMD1 140746Z 15002KT 28/19 A3001 RMK A01 T02780188  RH  058%=      5-min Rain = 0
KMD1 140747Z 15002KT 28/19 A3001 RMK A01 T02770187  RH  058%=      5-min Rain = 0
KMD1 140748Z 14002KT 28/19 A3001 RMK A01 T02770187  RH  058%=      5-min Rain = 0
KMD1 140749Z 12002KT 28/19 A3001 RMK A01 T02760187  RH  059%=      5-min Rain = 0
KMD1 140750Z 13003KT 28/19 A3001 RMK A01 T02750187  RH  059%=      5-min Rain = 0
KMD1 140751Z 11002KT 28/19 A3001 RMK A01 T02750188  RH  059%=      5-min Rain = 0
KMD1 140752Z 09001KT 28/19 A3001 RMK A01 T02750188  RH  059%=      5-min Rain = 0
KMD1 140753Z 09002KT 28/19 A3001 RMK A01 T02750189  RH  059%=      5-min Rain = 0
KMD1 140754Z 08001KT 27/19 A3001 RMK A01 T02740188  RH  060%=      5-min Rain = 0
KMD1 140755Z 03001KT 27/19 A3001 RMK A01 T02720187  RH  060%=      5-min Rain = 0
KMD1 140756Z 03001KT 27/19 A3001 RMK A01 T02690187  RH  061%=      5-min Rain = 0
KMD1 140757Z 04001KT 27/19 A3001 RMK A01 T02680187  RH  061%=      5-min Rain = 0
KMD1 140758Z 06001KT 27/19 A3001 RMK A01 T02680187  RH  061%=      5-min Rain = 0
KMD1 140759Z 04001KT 27/19 A3001 RMK A01 T02680188  RH  061%=      5-min Rain = 0
KMD1 140800Z 06001KT 27/19 A3001 RMK A01 T02680188  RH  061%=      5-min Rain = 0
KMD1 140801Z 04001KT 27/19 A3001 RMK A01 T02690188  RH  061%=      5-min Rain = 0
KMD1 140802Z 05001KT 27/19 A3001 RMK A01 T02700188  RH  061%=      5-min Rain = 0
KMD1 140803Z 05001KT 27/19 A3001 RMK A01 T02690187  RH  061%=      5-min Rain = 0
KMD1 140804Z 04000KT 27/19 A3001 RMK A01 T02680188  RH  061%=      5-min Rain = 0
KMD1 140805Z 00000KT 27/19 A3001 RMK A01 T02680188  RH  062%=      5-min Rain = 0
KMD1 140806Z 09000KT 27/19 A3001 RMK A01 T02660187  RH  062%=      5-min Rain = 0
KMD1 140807Z 11000KT 27/19 A3001 RMK A01 T02660188  RH  062%=      5-min Rain = 0
KMD1 140808Z 00000KT 27/19 A3001 RMK A01 T02650187  RH  062%=      5-min Rain = 0
KMD1 140809Z 00000KT 27/19 A3001 RMK A01 T02650187  RH  062%=      5-min Rain = 0
KMD1 140810Z 00000KT 27/19 A3001 RMK A01 T02650188  RH  062%=      5-min Rain = 0
KMD1 140811Z 13001KT 27/19 A30 RMK A01 T02650188  RH  062%=      5-min Rain = 0
KMD1 140812Z 13001KT 27/19 A30 RMK A01 T02650188  RH  062%=      5-min Rain = 0
KMD1 140813Z 13002KT 27/19 A30 RMK A01 T02650187  RH  062%=      5-min Rain = 0
KMD1 140814Z 13002KT 26/19 A30 RMK A01 T02640187  RH  063%=      5-min Rain = 0
KMD1 140815Z 13002KT 26/19 A3001 RMK A01 T02640188  RH  063%=      5-min Rain = 0
KMD1 140816Z 13002KT 26/19 A3001 RMK A01 T02640188  RH  063%=      5-min Rain = 0
KMD1 140817Z 13002KT 26/19 A3001 RMK A01 T02640188  RH  063%=      5-min Rain = 0
KMD1 140818Z 11002KT 26/19 A3001 RMK A01 T02640188  RH  063%=      5-min Rain = 0
KMD1 140819Z 12002KT 27/19 A3001 RMK A01 T02650188  RH  063%=      5-min Rain = 0
KMD1 140820Z 12002KT 26/19 A3001 RMK A01 T02640188  RH  063%=      5-min Rain = 0
KMD1 140821Z 11002KT 26/19 A3001 RMK A01 T02640188  RH  063%=      5-min Rain = 0
KMD1 140822Z 12002KT 26/19 A3001 RMK A01 T02640187  RH  063%=      5-min Rain = 0
KMD1 140823Z 13002KT 26/19 A3001 RMK A01 T02630187  RH  063%=      5-min Rain = 0
KMD1 140824Z 12002KT 26/19 A3001 RMK A01 T02620187  RH  063%=      5-min Rain = 0
KMD1 140825Z 11002KT 26/19 A3001 RMK A01 T02610187  RH  064%=      5-min Rain = 0
KMD1 140826Z 12003KT 26/19 A3001 RMK A01 T02610187  RH  064%=      5-min Rain = 0
KMD1 140827Z 12003KT 26/19 A3001 RMK A01 T02610189  RH  064%=      5-min Rain = 0
KMD1 140828Z 08002KT 26/19 A3001 RMK A01 T02600190  RH  065%=      5-min Rain = 0
KMD1 140829Z 11002KT 26/19 A3001 RMK A01 T02600191  RH  065%=      5-min Rain = 0
KMD1 140830Z 11003KT 26/19 A3001 RMK A01 T02590189  RH  065%=      5-min Rain = 0
KMD1 140831Z 10002KT 26/19 A3001 RMK A01 T02580189  RH  066%=      5-min Rain = 0
KMD1 140832Z 10002KT 26/19 A3001 RMK A01 T02560190  RH  067%=      5-min Rain = 0
KMD1 140833Z 12002KT 26/19 A3001 RMK A01 T02550189  RH  067%=      5-min Rain = 0
KMD1 140834Z 08002KT 25/19 A3001 RMK A01 T02540189  RH  067%=      5-min Rain = 0
KMD1 140835Z 10002KT 25/19 A3001 RMK A01 T02540189  RH  067%=      5-min Rain = 0
KMD1 140836Z 09002KT 25/19 A3001 RMK A01 T02530190  RH  068%=      5-min Rain = 0
KMD1 140837Z 07001KT 26/19 A3001 RMK A01 T02550190  RH  067%=      5-min Rain = 0
KMD1 140838Z 06002KT 26/19 A3001 RMK A01 T02560190  RH  067%=      5-min Rain = 0
KMD1 140839Z 06002KT 26/19 A3001 RMK A01 T02560190  RH  067%=      5-min Rain = 0
KMD1 140840Z 04002KT 26/19 A3001 RMK A01 T02560190  RH  067%=      5-min Rain = 0
KMD1 140841Z 02002KT 26/19 A3001 RMK A01 T02560190  RH  067%=      5-min Rain = 0
KMD1 140842Z 03002KT 26/19 A3001 RMK A01 T02570190  RH  066%=      5-min Rain = 0
KMD1 140843Z 04002KT 26/19 A3001 RMK A01 T02570189  RH  066%=      5-min Rain = 0
KMD1 140844Z 05002KT 26/19 A3001 RMK A01 T02580190  RH  066%=      5-min Rain = 0
KMD1 140845Z 04002KT 26/19 A3001 RMK A01 T02600190  RH  065%=      5-min Rain = 0
KMD1 140846Z 02002KT 26/19 A3001 RMK A01 T02600190  RH  065%=      5-min Rain = 0
KMD1 140847Z 03003KT 26/19 A3001 RMK A01 T02610190  RH  065%=      5-min Rain = 0
KMD1 140848Z 02002KT 26/19 A3001 RMK A01 T02620190  RH  065%=      5-min Rain = 0
KMD1 140849Z 02002KT 26/19 A3001 RMK A01 T02620191  RH  065%=      5-min Rain = 0
KMD1 140850Z 02002KT 26/19 A3001 RMK A01 T02620191  RH  065%=      5-min Rain = 0
KMD1 140851Z 02002KT 26/19 A3001 RMK A01 T02620191  RH  065%=      5-min Rain = 0
KMD1 140852Z 03001KT 26/19 A3001 RMK A01 T02620191  RH  065%=      5-min Rain = 0
KMD1 140853Z 03001KT 26/19 A3001 RMK A01 T02620191  RH  065%=      5-min Rain = 0
KMD1 140854Z 03001KT 26/19 A3001 RMK A01 T02610191  RH  065%=      5-min Rain = 0
KMD1 140855Z 03000KT 26/19 A3001 RMK A01 T02610191  RH  065%=      5-min Rain = 0
KMD1 140856Z 00000KT 26/19 A3001 RMK A01 T02610191  RH  065%=      5-min Rain = 0
KMD1 140857Z 00000KT 26/19 A3001 RMK A01 T02610192  RH  065%=      5-min Rain = 0
KMD1 140858Z 00000KT 26/19 A3001 RMK A01 T02620192  RH  065%=      5-min Rain = 0
KMD1 140859Z 00000KT 26/19 A3001 RMK A01 T02630192  RH  065%=      5-min Rain = 0
KMD1 140900Z 00000KT 26/19 A3001 RMK A01 T02630192  RH  065%=      5-min Rain = 0
KMD1 140901Z 09000KT 26/19 A3001 RMK A01 T02630191  RH  065%=      5-min Rain = 0
KMD1 140902Z 12001KT 26/19 A3001 RMK A01 T02620192  RH  065%=      5-min Rain = 0
KMD1 140903Z 13000KT 26/19 A3001 RMK A01 T02620192  RH  065%=      5-min Rain = 0
KMD1 140904Z 12001KT 26/19 A3001 RMK A01 T02610192  RH  066%=      5-min Rain = 0
KMD1 140905Z 12001KT 26/19 A3001 RMK A01 T02610192  RH  066%=      5-min Rain = 0
KMD1 140906Z 14001KT 26/19 A3001 RMK A01 T02610192  RH  066%=      5-min Rain = 0
KMD1 140907Z 16000KT 26/19 A3001 RMK A01 T02610193  RH  066%=      5-min Rain = 0
KMD1 140908Z 08000KT 26/19 A3001 RMK A01 T02600191  RH  066%=      5-min Rain = 0
KMD1 140909Z 04001KT 26/19 A3001 RMK A01 T02610192  RH  066%=      5-min Rain = 0
KMD1 140910Z 05000KT 26/19 A30 RMK A01 T02600191  RH  066%=      5-min Rain = 0
KMD1 140911Z 04001KT 26/19 A30 RMK A01 T02570190  RH  066%=      5-min Rain = 0
KMD1 140912Z 05001KT 26/19 A30 RMK A01 T02550190  RH  067%=      5-min Rain = 0
KMD1 140913Z 05001KT 25/19 A30 RMK A01 T02530189  RH  068%=      5-min Rain = 0
KMD1 140914Z 05001KT 25/19 A30 RMK A01 T02520189  RH  068%=      5-min Rain = 0
KMD1 140915Z 04001KT 25/19 A30 RMK A01 T02510188  RH  068%=      5-min Rain = 0
KMD1 140916Z 04001KT 25/19 A30 RMK A01 T02490189  RH  069%=      5-min Rain = 0
KMD1 140917Z 04001KT 25/19 A30 RMK A01 T02490189  RH  070%=      5-min Rain = 0
KMD1 140918Z 04001KT 25/19 A30 RMK A01 T02480189  RH  070%=      5-min Rain = 0
KMD1 140919Z 03001KT 25/19 A30 RMK A01 T02490189  RH  069%=      5-min Rain = 0
KMD1 140920Z 02001KT 25/19 A30 RMK A01 T02480189  RH  070%=      5-min Rain = 0
KMD1 140921Z 03001KT 25/19 A30 RMK A01 T02480190  RH  070%=      5-min Rain = 0
KMD1 140922Z 03001KT 25/19 A30 RMK A01 T02480190  RH  070%=      5-min Rain = 0
KMD1 140923Z 03001KT 25/19 A3001 RMK A01 T02470189  RH  070%=      5-min Rain = 0
KMD1 140924Z 03001KT 25/19 A3001 RMK A01 T02470189  RH  070%=      5-min Rain = 0
KMD1 140925Z 04002KT 25/19 A3001 RMK A01 T02480189  RH  070%=      5-min Rain = 0
KMD1 140926Z 03002KT 25/19 A3001 RMK A01 T02480188  RH  069%=      5-min Rain = 0
KMD1 140927Z 03002KT 25/19 A3001 RMK A01 T02470188  RH  070%=      5-min Rain = 0
KMD1 140928Z 03002KT 25/19 A3001 RMK A01 T02470189  RH  070%=      5-min Rain = 0
KMD1 140929Z 03001KT 25/19 A3001 RMK A01 T02460189  RH  070%=      5-min Rain = 0
KMD1 140930Z 03002KT 25/19 A3001 RMK A01 T02470188  RH  070%=      5-min Rain = 0
KMD1 140931Z 04002KT 25/19 A3001 RMK A01 T02470189  RH  070%=      5-min Rain = 0
KMD1 140932Z 04002KT 25/19 A3001 RMK A01 T02480190  RH  070%=      5-min Rain = 0
KMD1 140933Z 02001KT 25/19 A3001 RMK A01 T02480189  RH  070%=      5-min Rain = 0
KMD1 140934Z 35001KT 25/19 A3001 RMK A01 T02480189  RH  070%=      5-min Rain = 0
KMD1 140935Z 08000KT 25/19 A3001 RMK A01 T02480190  RH  070%=      5-min Rain = 0
KMD1 140936Z 09001KT 25/19 A3001 RMK A01 T02480192  RH  071%=      5-min Rain = 0
KMD1 140937Z 07000KT 25/19 A3001 RMK A01 T02500193  RH  070%=      5-min Rain = 0
KMD1 140938Z 09001KT 25/19 A3001 RMK A01 T02520192  RH  069%=      5-min Rain = 0
KMD1 140939Z 11000KT 25/19 A3001 RMK A01 T02530192  RH  069%=      5-min Rain = 0
KMD1 140940Z 10000KT 25/19 A3001 RMK A01 T02530192  RH  069%=      5-min Rain = 0
KMD1 140941Z 00000KT 25/19 A3001 RMK A01 T02530193  RH  069%=      5-min Rain = 0
KMD1 140942Z 00000KT 25/19 A3001 RMK A01 T02540193  RH  069%=      5-min Rain = 0
KMD1 140943Z 00000KT 25/19 A3001 RMK A01 T02540192  RH  068%=      5-min Rain = 0
KMD1 140944Z 36000KT 25/19 A3001 RMK A01 T02540193  RH  069%=      5-min Rain = 0
KMD1 140945Z 25000KT 25/19 A3001 RMK A01 T02540194  RH  069%=      5-min Rain = 0
KMD1 140946Z 27000KT 25/19 A3001 RMK A01 T02540194  RH  069%=      5-min Rain = 0
KMD1 140947Z 25001KT 26/20 A3001 RMK A01 T02550195  RH  069%=      5-min Rain = 0
KMD1 140948Z 24003KT 26/20 A3001 RMK A01 T02570195  RH  069%=      5-min Rain = 0
KMD1 140949Z 26002KT 26/20 A3001 RMK A01 T02570195  RH  069%=      5-min Rain = 0
KMD1 140950Z 27002KT 26/19 A3001 RMK A01 T02550194  RH  069%=      5-min Rain = 0
KMD1 140951Z 28003KT 25/19 A3001 RMK A01 T02530194  RH  070%=      5-min Rain = 0
KMD1 140952Z 27003KT 25/19 A3001 RMK A01 T02520194  RH  070%=      5-min Rain = 0
KMD1 140953Z 26003KT 25/19 A3001 RMK A01 T02530194  RH  070%=      5-min Rain = 0
KMD1 140954Z 26004KT 25/19 A3001 RMK A01 T02530194  RH  069%=      5-min Rain = 0
KMD1 140955Z 26004KT 25/19 A3001 RMK A01 T02540194  RH  070%=      5-min Rain = 0
KMD1 140956Z 26004KT 25/19 A3002 RMK A01 T02540194  RH  069%=      5-min Rain = 0
KMD1 140957Z 25003KT 26/20 A3002 RMK A01 T02550195  RH  069%=      5-min Rain = 0
KMD1 140958Z 24003KT 26/19 A3002 RMK A01 T02550194  RH  069%=      5-min Rain = 0
KMD1 140959Z 24003KT 26/20 A3002 RMK A01 T02560195  RH  069%=      5-min Rain = 0
KMD1 141000Z 24003KT 26/20 A3002 RMK A01 T02560195  RH  069%=      5-min Rain = 0
KMD1 141001Z 23002KT 26/20 A3002 RMK A01 T02560195  RH  069%=      5-min Rain = 0
KMD1 141002Z 23002KT 26/20 A3002 RMK A01 T02570195  RH  069%=      5-min Rain = 0
KMD1 141003Z 24003KT 26/20 A3002 RMK A01 T02570195  RH  069%=      5-min Rain = 0
KMD1 141004Z 24002KT 26/20 A3002 RMK A01 T02570195  RH  068%=      5-min Rain = 0
KMD1 141005Z 25002KT 26/20 A3002 RMK A01 T02580195  RH  068%=      5-min Rain = 0
KMD1 141006Z 25001KT 26/20 A3002 RMK A01 T02590195  RH  068%=      5-min Rain = 0
KMD1 141007Z 25002KT 26/20 A3002 RMK A01 T02590195  RH  068%=      5-min Rain = 0
KMD1 141008Z 25002KT 26/20 A3002 RMK A01 T02590195  RH  068%=      5-min Rain = 0
KMD1 141009Z 25002KT 26/20 A3002 RMK A01 T02590195  RH  068%=      5-min Rain = 0
KMD1 141010Z 25002KT 26/20 A3002 RMK A01 T02590195  RH  068%=      5-min Rain = 0
KMD1 141011Z 26001KT 26/20 A3002 RMK A01 T02580195  RH  068%=      5-min Rain = 0
KMD1 141012Z 27002KT 26/20 A3002 RMK A01 T02580195  RH  068%=      5-min Rain = 0
KMD1 141013Z 28002KT 26/19 A3002 RMK A01 T02570194  RH  068%=      5-min Rain = 0
KMD1 141014Z 30002KT 26/19 A3002 RMK A01 T02560194  RH  069%=      5-min Rain = 0
KMD1 141015Z 31002KT 26/19 A3002 RMK A01 T02550194  RH  069%=      5-min Rain = 0
KMD1 141016Z 31002KT 25/19 A3002 RMK A01 T02540194  RH  069%=      5-min Rain = 0
KMD1 141017Z 30002KT 25/19 A3002 RMK A01 T02530193  RH  070%=      5-min Rain = 0
KMD1 141018Z 29002KT 25/19 A3002 RMK A01 T02520194  RH  070%=      5-min Rain = 0
KMD1 141019Z 28002KT 25/19 A3002 RMK A01 T02520194  RH  070%=      5-min Rain = 0
KMD1 141020Z 26003KT 25/19 A3002 RMK A01 T02510194  RH  071%=      5-min Rain = 0
KMD1 141021Z 24002KT 25/19 A3002 RMK A01 T02510194  RH  071%=      5-min Rain = 0
KMD1 141022Z 24003KT 25/19 A3002 RMK A01 T02510194  RH  071%=      5-min Rain = 0
KMD1 141023Z 24003KT 25/19 A3002 RMK A01 T02510194  RH  071%=      5-min Rain = 0
KMD1 141024Z 24003KT 25/19 A3002 RMK A01 T02510194  RH  070%=      5-min Rain = 0
KMD1 141025Z 24004KT 25/19 A3002 RMK A01 T02510193  RH  070%=      5-min Rain = 0
KMD1 141026Z 24004KT 25/19 A3002 RMK A01 T02510193  RH  070%=      5-min Rain = 0
KMD1 141027Z 24004KT 25/19 A3002 RMK A01 T02510193  RH  070%=      5-min Rain = 0
KMD1 141028Z 24003KT 25/19 A3002 RMK A01 T02520193  RH  070%=      5-min Rain = 0
KMD1 141029Z 24003KT 25/19 A3001 RMK A01 T02510193  RH  070%=      5-min Rain = 0
KMD1 141030Z 24002KT 25/19 A3001 RMK A01 T02510193  RH  070%=      5-min Rain = 0
KMD1 141031Z 21003KT 25/19 A3001 RMK A01 T02510194  RH  071%=      5-min Rain = 0
KMD1 141032Z 20003KT 25/20 A3001 RMK A01 T02500195  RH  072%=      5-min Rain = 0
KMD1 141033Z 22003KT 25/20 A3001 RMK A01 T02490195  RH  072%=      5-min Rain = 0
KMD1 141034Z 24003KT 25/20 A3001 RMK A01 T02470195  RH  073%=      5-min Rain = 0
KMD1 141035Z 23003KT 25/20 A3001 RMK A01 T02470195  RH  073%=      5-min Rain = 0
KMD1 141036Z 23003KT 25/20 A3001 RMK A01 T02460195  RH  073%=      5-min Rain = 0
KMD1 141037Z 23003KT 25/20 A3001 RMK A01 T02450195  RH  073%=      5-min Rain = 0
KMD1 141038Z 22003KT 25/20 A3001 RMK A01 T02450195  RH  074%=      5-min Rain = 0
KMD1 141039Z 22003KT 24/19 A3001 RMK A01 T02440194  RH  074%=      5-min Rain = 0
KMD1 141040Z 22003KT 24/19 A3001 RMK A01 T02440194  RH  073%=      5-min Rain = 0
KMD1 141041Z 22002KT 24/19 A3001 RMK A01 T02440193  RH  073%=      5-min Rain = 0
KMD1 141042Z 21002KT 24/19 A3001 RMK A01 T02440193  RH  073%=      5-min Rain = 0
KMD1 141043Z 21002KT 24/19 A3001 RMK A01 T02430193  RH  073%=      5-min Rain = 0
KMD1 141044Z 21002KT 24/19 A3001 RMK A01 T02430193  RH  074%=      5-min Rain = 0
KMD1 141045Z 21002KT 24/19 A3001 RMK A01 T02430193  RH  074%=      5-min Rain = 0
KMD1 141046Z 21002KT 24/19 A3001 RMK A01 T02420193  RH  074%=      5-min Rain = 0
KMD1 141047Z 21001KT 24/19 A3001 RMK A01 T02420193  RH  074%=      5-min Rain = 0
KMD1 141048Z 22001KT 24/19 A3001 RMK A01 T02410192  RH  074%=      5-min Rain = 0
KMD1 141049Z 21001KT 24/19 A3001 RMK A01 T02410192  RH  074%=      5-min Rain = 0
KMD1 141050Z 22001KT 24/19 A3001 RMK A01 T02410193  RH  074%=      5-min Rain = 0
KMD1 141051Z 22000KT 24/19 A3002 RMK A01 T02400193  RH  075%=      5-min Rain = 0
KMD1 141052Z 21001KT 24/19 A3002 RMK A01 T02400192  RH  075%=      5-min Rain = 0
KMD1 141053Z 20001KT 24/19 A3002 RMK A01 T02390192  RH  075%=      5-min Rain = 0
KMD1 141054Z 20001KT 24/19 A3002 RMK A01 T02390193  RH  075%=      5-min Rain = 0
KMD1 141055Z 19001KT 24/19 A3002 RMK A01 T02380192  RH  076%=      5-min Rain = 0
KMD1 141056Z 18001KT 24/19 A3002 RMK A01 T02380192  RH  076%=      5-min Rain = 0
KMD1 141057Z 17001KT 24/19 A3002 RMK A01 T02370193  RH  076%=      5-min Rain = 0
KMD1 141058Z 17001KT 24/19 A3002 RMK A01 T02370193  RH  076%=      5-min Rain = 0
KMD1 141059Z 17001KT 24/19 A3002 RMK A01 T02370193  RH  077%=      5-min Rain = 0
KMD1 141100Z 17001KT 24/19 A3002 RMK A01 T02370193  RH  076%=      5-min Rain = 0
KMD1 141101Z 17001KT 24/19 A3002 RMK A01 T02370193  RH  077%=      5-min Rain = 0
KMD1 141102Z 17002KT 24/19 A3002 RMK A01 T02360193  RH  077%=      5-min Rain = 0
KMD1 141103Z 18002KT 24/19 A3002 RMK A01 T02360193  RH  076%=      5-min Rain = 0
KMD1 141104Z 18001KT 24/19 A3002 RMK A01 T02370192  RH  076%=      5-min Rain = 0
KMD1 141105Z 18002KT 24/19 A3002 RMK A01 T02370192  RH  076%=      5-min Rain = 0
KMD1 141106Z 18001KT 24/19 A3002 RMK A01 T02370192  RH  076%=      5-min Rain = 0
KMD1 141107Z 18001KT 24/19 A3002 RMK A01 T02370192  RH  076%=      5-min Rain = 0
KMD1 141108Z 16001KT 24/19 A3002 RMK A01 T02370193  RH  076%=      5-min Rain = 0
KMD1 141109Z 15001KT 24/19 A3002 RMK A01 T02370192  RH  076%=      5-min Rain = 0
KMD1 141110Z 13001KT 24/19 A3003 RMK A01 T02370193  RH  076%=      5-min Rain = 0
KMD1 141111Z 11001KT 24/19 A3003 RMK A01 T02370193  RH  076%=      5-min Rain = 0
KMD1 141112Z 10001KT 24/19 A3003 RMK A01 T02370193  RH  076%=      5-min Rain = 0
KMD1 141113Z 10001KT 24/19 A3003 RMK A01 T02370194  RH  077%=      5-min Rain = 0
KMD1 141114Z 11001KT 24/19 A3003 RMK A01 T02370194  RH  077%=      5-min Rain = 0
KMD1 141115Z 11000KT 24/19 A3003 RMK A01 T02370194  RH  077%=      5-min Rain = 0
KMD1 141116Z 00000KT 24/19 A3003 RMK A01 T02370194  RH  077%=      5-min Rain = 0
KMD1 141117Z 00000KT 24/19 A3003 RMK A01 T02370194  RH  077%=      5-min Rain = 0
KMD1 141118Z 00000KT 24/19 A3003 RMK A01 T02360193  RH  077%=      5-min Rain = 0
KMD1 141119Z 14000KT 24/19 A3003 RMK A01 T02360193  RH  077%=      5-min Rain = 0
KMD1 141120Z 14000KT 24/19 A3003 RMK A01 T02360193  RH  077%=      5-min Rain = 0
KMD1 141121Z 15001KT 24/19 A3003 RMK A01 T02360193  RH  077%=      5-min Rain = 0
KMD1 141122Z 16001KT 24/19 A3003 RMK A01 T02360193  RH  076%=      5-min Rain = 0
KMD1 141123Z 16001KT 24/19 A3003 RMK A01 T02370193  RH  077%=      5-min Rain = 0
KMD1 141124Z 17002KT 24/19 A3003 RMK A01 T02360193  RH  077%=      5-min Rain = 0
KMD1 141125Z 17002KT 24/19 A3003 RMK A01 T02360194  RH  077%=      5-min Rain = 0
KMD1 141126Z 17002KT 24/19 A3003 RMK A01 T02360193  RH  077%=      5-min Rain = 0
KMD1 141127Z 18001KT 24/19 A3003 RMK A01 T02360193  RH  077%=      5-min Rain = 0
KMD1 141128Z 19001KT 24/19 A3003 RMK A01 T02360194  RH  077%=      5-min Rain = 0
KMD1 141129Z 20001KT 24/19 A3003 RMK A01 T02360194  RH  077%=      5-min Rain = 0
KMD1 141130Z 20001KT 24/19 A3003 RMK A01 T02360194  RH  077%=      5-min Rain = 0
KMD1 141131Z 20001KT 24/19 A3003 RMK A01 T02360193  RH  077%=      5-min Rain = 0
KMD1 141132Z 18001KT 24/19 A3003 RMK A01 T02360193  RH  077%=      5-min Rain = 0
KMD1 141133Z 19000KT 24/19 A3003 RMK A01 T02360191  RH  076%=      5-min Rain = 0
KMD1 141134Z 00000KT 24/19 A3003 RMK A01 T02350191  RH  076%=      5-min Rain = 0
KMD1 141135Z 19001KT 24/19 A3003 RMK A01 T02350192  RH  077%=      5-min Rain = 0
KMD1 141136Z 19001KT 24/19 A3003 RMK A01 T02350192  RH  077%=      5-min Rain = 0
KMD1 141137Z 19001KT 24/19 A3003 RMK A01 T02350191  RH  076%=      5-min Rain = 0
KMD1 141138Z 18001KT 24/19 A3003 RMK A01 T02350191  RH  076%=      5-min Rain = 0
KMD1 141139Z 18002KT 24/19 A3003 RMK A01 T02350191  RH  076%=      5-min Rain = 0
KMD1 141140Z 19002KT 24/19 A3003 RMK A01 T02360191  RH  076%=      5-min Rain = 0
KMD1 141141Z 19002KT 24/19 A3003 RMK A01 T02350191  RH  076%=      5-min Rain = 0
KMD1 141142Z 19002KT 24/19 A3003 RMK A01 T02360191  RH  076%=      5-min Rain = 0
KMD1 141143Z 19002KT 24/19 A3003 RMK A01 T02370191  RH  075%=      5-min Rain = 0
KMD1 141144Z 18003KT 24/19 A3003 RMK A01 T02370191  RH  075%=      5-min Rain = 0
KMD1 141145Z 18003KT 24/19 A3003 RMK A01 T02380191  RH  075%=      5-min Rain = 0
KMD1 141146Z 18003KT 24/19 A3003 RMK A01 T02380191  RH  075%=      5-min Rain = 0
KMD1 141147Z 19002KT 24/19 A3003 RMK A01 T02380191  RH  075%=      5-min Rain = 0
KMD1 141148Z 20002KT 24/19 A3003 RMK A01 T02380190  RH  075%=      5-min Rain = 0
KMD1 141149Z 19002KT 24/19 A3003 RMK A01 T02380190  RH  075%=      5-min Rain = 0
KMD1 141150Z 20001KT 24/19 A3003 RMK A01 T02380190  RH  074%=      5-min Rain = 0
KMD1 141151Z 20001KT 24/19 A3003 RMK A01 T02380190  RH  074%=      5-min Rain = 0
KMD1 141152Z 21001KT 24/19 A3004 RMK A01 T02370190  RH  075%=      5-min Rain = 0
KMD1 141153Z 00000KT 24/19 A3004 RMK A01 T02370190  RH  075%=      5-min Rain = 0
KMD1 141154Z 22000KT 24/19 A3004 RMK A01 T02360190  RH  075%=      5-min Rain = 0
KMD1 141155Z 00000KT 24/19 A3004 RMK A01 T02360189  RH  075%=      5-min Rain = 0
KMD1 141156Z 00000KT 24/19 A3004 RMK A01 T02360189  RH  075%=      5-min Rain = 0
KMD1 141157Z 27000KT 24/19 A3004 RMK A01 T02360190  RH  075%=      5-min Rain = 0
KMD1 141158Z 28001KT 24/19 A3004 RMK A01 T02360189  RH  075%=      5-min Rain = 0
KMD1 141159Z 30001KT 24/19 A3004 RMK A01 T02360189  RH  075%=      5-min Rain = 0
KMD1 141200Z 31001KT 24/19 A3004 RMK A01 T02360189  RH  075%=      5-min Rain = 0
KMD1 141201Z 31001KT 24/19 A3004 RMK A01 T02360188  RH  074%=      5-min Rain = 0
KMD1 141202Z 31001KT 24/19 A3004 RMK A01 T02360187  RH  074%=      5-min Rain = 0
KMD1 141203Z 31001KT 24/19 A3004 RMK A01 T02370188  RH  074%=      5-min Rain = 0
KMD1 141204Z 30001KT 24/19 A3004 RMK A01 T02370187  RH  073%=      5-min Rain = 0
KMD1 141205Z 30002KT 24/19 A3004 RMK A01 T02380186  RH  073%=      5-min Rain = 0
KMD1 141206Z 30002KT 24/19 A3004 RMK A01 T02390187  RH  073%=      5-min Rain = 0
KMD1 141207Z 29002KT 24/19 A3004 RMK A01 T02390186  RH  072%=      5-min Rain = 0
KMD1 141208Z 28002KT 24/19 A3004 RMK A01 T02380186  RH  073%=      5-min Rain = 0
KMD1 141209Z 28002KT 24/19 A3004 RMK A01 T02380186  RH  073%=      5-min Rain = 0
KMD1 141210Z 26002KT 24/19 A3004 RMK A01 T02380185  RH  073%=      5-min Rain = 0
KMD1 141211Z 25001KT 24/19 A3004 RMK A01 T02380185  RH  072%=      5-min Rain = 0
KMD1 141212Z 26001KT 24/18 A3004 RMK A01 T02380184  RH  071%=      5-min Rain = 0
KMD1 141213Z 26001KT 24/18 A3004 RMK A01 T02390184  RH  072%=      5-min Rain = 0
KMD1 141214Z 27001KT 24/19 A3005 RMK A01 T02390185  RH  072%=      5-min Rain = 0
KMD1 141215Z 26001KT 24/19 A3005 RMK A01 T02390185  RH  072%=      5-min Rain = 0
KMD1 141216Z 25001KT 24/19 A3005 RMK A01 T02390186  RH  072%=      5-min Rain = 0
KMD1 141217Z 23001KT 24/19 A3005 RMK A01 T02390186  RH  072%=      5-min Rain = 0
KMD1 141218Z 23001KT 24/19 A3005 RMK A01 T02390185  RH  072%=      5-min Rain = 0
KMD1 141219Z 23001KT 24/19 A3005 RMK A01 T02390185  RH  072%=      5-min Rain = 0
KMD1 141220Z 23001KT 24/19 A3005 RMK A01 T02390185  RH  071%=      5-min Rain = 0
KMD1 141221Z 21002KT 24/18 A3005 RMK A01 T02400184  RH  071%=      5-min Rain = 0
KMD1 141222Z 21002KT 24/18 A3005 RMK A01 T02400183  RH  070%=      5-min Rain = 0
KMD1 141223Z 20002KT 24/18 A3005 RMK A01 T02410183  RH  070%=      5-min Rain = 0
KMD1 141224Z 20002KT 24/18 A3004 RMK A01 T02410183  RH  070%=      5-min Rain = 0
KMD1 141225Z 20003KT 24/18 A3004 RMK A01 T02420184  RH  070%=      5-min Rain = 0
KMD1 141226Z 21003KT 24/18 A3004 RMK A01 T02420184  RH  070%=      5-min Rain = 0
KMD1 141227Z 22002KT 24/18 A3004 RMK A01 T02420184  RH  070%=      5-min Rain = 0
KMD1 141228Z 22002KT 24/18 A3004 RMK A01 T02430184  RH  070%=      5-min Rain = 0
KMD1 141229Z 22003KT 24/18 A3004 RMK A01 T02430184  RH  070%=      5-min Rain = 0
KMD1 141230Z 22003KT 24/18 A3004 RMK A01 T02430184  RH  070%=      5-min Rain = 0
KMD1 141231Z 21003KT 24/19 A3004 RMK A01 T02430185  RH  070%=      5-min Rain = 0
KMD1 141232Z 20004KT 24/19 A3004 RMK A01 T02420185  RH  070%=      5-min Rain = 0
KMD1 141233Z 20003KT 24/19 A3004 RMK A01 T02410185  RH  071%=      5-min Rain = 0
KMD1 141234Z 20003KT 24/19 A3004 RMK A01 T02410186  RH  071%=      5-min Rain = 0
KMD1 141235Z 20003KT 24/19 A3004 RMK A01 T02410187  RH  072%=      5-min Rain = 0
KMD1 141236Z 22002KT 24/19 A3004 RMK A01 T02400187  RH  072%=      5-min Rain = 0
KMD1 141237Z 24002KT 24/19 A3004 RMK A01 T02400188  RH  073%=      5-min Rain = 0
KMD1 141238Z 26002KT 24/19 A3004 RMK A01 T02400188  RH  073%=      5-min Rain = 0
KMD1 141239Z 25002KT 24/19 A3004 RMK A01 T02390187  RH  072%=      5-min Rain = 0
KMD1 141240Z 25002KT 24/19 A3004 RMK A01 T02390186  RH  072%=      5-min Rain = 0
KMD1 141241Z 25002KT 24/19 A3004 RMK A01 T02390186  RH  072%=      5-min Rain = 0
KMD1 141242Z 24002KT 24/19 A3004 RMK A01 T02390186  RH  072%=      5-min Rain = 0
KMD1 141243Z 25002KT 24/19 A3004 RMK A01 T02390185  RH  072%=      5-min Rain = 0
KMD1 141244Z 25001KT 24/19 A3005 RMK A01 T02390185  RH  071%=      5-min Rain = 0
KMD1 141245Z 26001KT 24/18 A3005 RMK A01 T02400184  RH  071%=      5-min Rain = 0
KMD1 141246Z 26001KT 24/18 A3005 RMK A01 T02400183  RH  070%=      5-min Rain = 0
KMD1 141247Z 25002KT 24/18 A3005 RMK A01 T02400183  RH  070%=      5-min Rain = 0
KMD1 141248Z 25002KT 24/18 A3005 RMK A01 T02410184  RH  070%=      5-min Rain = 0
KMD1 141249Z 25002KT 24/18 A3005 RMK A01 T02420184  RH  070%=      5-min Rain = 0
KMD1 141250Z 26002KT 24/18 A3005 RMK A01 T02420184  RH  070%=      5-min Rain = 0
KMD1 141251Z 25001KT 24/18 A3005 RMK A01 T02430183  RH  069%=      5-min Rain = 0
KMD1 141252Z 26002KT 24/18 A3005 RMK A01 T02430183  RH  069%=      5-min Rain = 0
KMD1 141253Z 24002KT 24/18 A3005 RMK A01 T02430183  RH  069%=      5-min Rain = 0
KMD1 141254Z 26001KT 24/18 A3005 RMK A01 T02440184  RH  069%=      5-min Rain = 0
KMD1 141255Z 24001KT 25/18 A3005 RMK A01 T02450184  RH  069%=      5-min Rain = 0
KMD1 141256Z 24001KT 25/19 A3005 RMK A01 T02450185  RH  069%=      5-min Rain = 0
KMD1 141257Z 21001KT 25/19 A3005 RMK A01 T02460185  RH  069%=      5-min Rain = 0
KMD1 141258Z 23001KT 25/19 A3005 RMK A01 T02470185  RH  068%=      5-min Rain = 0
KMD1 141259Z 22002KT 25/19 A3005 RMK A01 T02470185  RH  068%=      5-min Rain = 0
KMD1 141300Z 23002KT 25/18 A3005 RMK A01 T02480184  RH  068%=      5-min Rain = 0
KMD1 141301Z 22002KT 25/18 A3005 RMK A01 T02480184  RH  068%=      5-min Rain = 0
KMD1 141302Z 22001KT 25/19 A3005 RMK A01 T02480185  RH  068%=      5-min Rain = 0
KMD1 141303Z 19002KT 25/18 A3005 RMK A01 T02480184  RH  068%=      5-min Rain = 0
KMD1 141304Z 21001KT 25/19 A3005 RMK A01 T02480186  RH  068%=      5-min Rain = 0
KMD1 141305Z 21001KT 25/19 A3005 RMK A01 T02480186  RH  068%=      5-min Rain = 0
KMD1 141306Z 20001KT 25/19 A3005 RMK A01 T02490188  RH  069%=      5-min Rain = 0
KMD1 141307Z 24000KT 25/19 A3005 RMK A01 T02500188  RH  068%=      5-min Rain = 0
KMD1 141308Z 25000KT 25/19 A3005 RMK A01 T02500187  RH  068%=      5-min Rain = 0
KMD1 141309Z 26001KT 25/19 A3005 RMK A01 T02500189  RH  069%=      5-min Rain = 0
KMD1 141310Z 25001KT 25/19 A3005 RMK A01 T02510188  RH  068%=      5-min Rain = 0
KMD1 141311Z 24001KT 25/19 A3005 RMK A01 T02510190  RH  069%=      5-min Rain = 0
KMD1 141312Z 25000KT 25/19 A3005 RMK A01 T02520190  RH  069%=      5-min Rain = 0
KMD1 141313Z 21001KT 25/19 A3005 RMK A01 T02510191  RH  069%=      5-min Rain = 0
KMD1 141314Z 20001KT 25/19 A3005 RMK A01 T02520190  RH  069%=      5-min Rain = 0
KMD1 141315Z 20001KT 25/19 A3005 RMK A01 T02530189  RH  068%=      5-min Rain = 0
KMD1 141316Z 19001KT 25/19 A3005 RMK A01 T02530189  RH  067%=      5-min Rain = 0
KMD1 141317Z 19002KT 25/19 A3005 RMK A01 T02540188  RH  067%=      5-min Rain = 0
KMD1 141318Z 21001KT 25/19 A3005 RMK A01 T02540190  RH  068%=      5-min Rain = 0
KMD1 141319Z 22001KT 26/19 A3005 RMK A01 T02550189  RH  067%=      5-min Rain = 0
KMD1 141320Z 21001KT 26/19 A3005 RMK A01 T02550188  RH  066%=      5-min Rain = 0
KMD1 141321Z 22002KT 26/19 A3005 RMK A01 T02560188  RH  066%=      5-min Rain = 0
KMD1 141322Z 24001KT 26/19 A3005 RMK A01 T02570189  RH  066%=      5-min Rain = 0
KMD1 141323Z 22001KT 26/19 A3005 RMK A01 T02580188  RH  065%=      5-min Rain = 0
KMD1 141324Z 21001KT 26/19 A3005 RMK A01 T02580186  RH  065%=      5-min Rain = 0
KMD1 141325Z 19002KT 26/19 A3005 RMK A01 T02580187  RH  065%=      5-min Rain = 0
KMD1 141326Z 19001KT 26/19 A3005 RMK A01 T02590189  RH  065%=      5-min Rain = 0
KMD1 141327Z 20002KT 26/19 A3006 RMK A01 T02600188  RH  065%=      5-min Rain = 0
KMD1 141328Z 19001KT 26/19 A3006 RMK A01 T02610188  RH  064%=      5-min Rain = 0
KMD1 141329Z 19002KT 26/19 A3006 RMK A01 T02620189  RH  064%=      5-min Rain = 0
KMD1 141330Z 20003KT 26/19 A3006 RMK A01 T02620186  RH  063%=      5-min Rain = 0
KMD1 141331Z 20003KT 26/19 A3006 RMK A01 T02610186  RH  063%=      5-min Rain = 0
KMD1 141332Z 20003KT 26/19 A3006 RMK A01 T02610188  RH  064%=      5-min Rain = 0
KMD1 141333Z 21002KT 26/19 A3006 RMK A01 T02610186  RH  064%=      5-min Rain = 0
KMD1 141334Z 20003KT 26/19 A3006 RMK A01 T02610187  RH  064%=      5-min Rain = 0
KMD1 141335Z 20002KT 26/19 A3006 RMK A01 T02620187  RH  063%=      5-min Rain = 0
KMD1 141336Z 20003KT 26/19 A3006 RMK A01 T02630186  RH  063%=      5-min Rain = 0
KMD1 141337Z 20003KT 26/19 A3006 RMK A01 T02640186  RH  062%=      5-min Rain = 0
KMD1 141338Z 21001KT 26/19 A3006 RMK A01 T02640187  RH  063%=      5-min Rain = 0
KMD1 141339Z 23002KT 26/19 A3006 RMK A01 T02640187  RH  062%=      5-min Rain = 0
KMD1 141340Z 23002KT 26/19 A3006 RMK A01 T02640189  RH  063%=      5-min Rain = 0
KMD1 141341Z 23002KT 27/19 A3006 RMK A01 T02650188  RH  063%=      5-min Rain = 0
KMD1 141342Z 21003KT 27/19 A3006 RMK A01 T02660188  RH  062%=      5-min Rain = 0
KMD1 141343Z 21003KT 27/19 A3006 RMK A01 T02650188  RH  062%=      5-min Rain = 0
KMD1 141344Z 21002KT 27/19 A3006 RMK A01 T02650189  RH  063%=      5-min Rain = 0
KMD1 141345Z 21001KT 27/19 A3006 RMK A01 T02660190  RH  063%=      5-min Rain = 0
KMD1 141346Z 20001KT 27/19 A3006 RMK A01 T02670189  RH  062%=      5-min Rain = 0
KMD1 141347Z 19001KT 27/19 A3006 RMK A01 T02680190  RH  062%=      5-min Rain = 0
KMD1 141348Z 20001KT 27/19 A3006 RMK A01 T02690190  RH  062%=      5-min Rain = 0
KMD1 141349Z 20002KT 27/19 A3006 RMK A01 T02700190  RH  061%=      5-min Rain = 0
KMD1 141350Z 22001KT 27/19 A3006 RMK A01 T02710190  RH  061%=      5-min Rain = 0
KMD1 141351Z 21001KT 27/19 A3006 RMK A01 T02720192  RH  062%=      5-min Rain = 0
KMD1 141352Z 19001KT 27/19 A3006 RMK A01 T02730192  RH  061%=      5-min Rain = 0
KMD1 141353Z 18002KT 27/19 A3006 RMK A01 T02740191  RH  061%=      5-min Rain = 0
KMD1 141354Z 17002KT 28/19 A3006 RMK A01 T02750191  RH  060%=      5-min Rain = 0
KMD1 141355Z 18002KT 28/19 A3006 RMK A01 T02750191  RH  060%=      5-min Rain = 0
KMD1 141356Z 17001KT 28/19 A3006 RMK A01 T02750191  RH  060%=      5-min Rain = 0
KMD1 141357Z 16002KT 28/19 A3006 RMK A01 T02750193  RH  061%=      5-min Rain = 0
KMD1 141358Z 18003KT 27/19 A3006 RMK A01 T02740192  RH  061%=      5-min Rain = 0
KMD1 141359Z 18002KT 27/19 A3006 RMK A01 T02740194  RH  062%=      5-min Rain = 0
KMD1 141400Z 16002KT 27/19 A3006 RMK A01 T02740193  RH  061%=      5-min Rain = 0
KMD1 141401Z 15003KT 27/20 A3006 RMK A01 T02740195  RH  062%=      5-min Rain = 0
KMD1 141402Z 15003KT 28/19 A3006 RMK A01 T02750194  RH  061%=      5-min Rain = 0
KMD1 141403Z 14003KT 28/20 A3006 RMK A01 T02760195  RH  061%=      5-min Rain = 0
KMD1 141404Z 16003KT 28/20 A3006 RMK A01 T02770195  RH  061%=      5-min Rain = 0
KMD1 141405Z 17003KT 28/20 A3006 RMK A01 T02770196  RH  061%=      5-min Rain = 0
KMD1 141406Z 15002KT 28/20 A3007 RMK A01 T02780196  RH  061%=      5-min Rain = 0
KMD1 141407Z 15003KT 28/20 A3007 RMK A01 T02790196  RH  061%=      5-min Rain = 0
KMD1 141408Z 15002KT 28/20 A3007 RMK A01 T02800195  RH  060%=      5-min Rain = 0
KMD1 141409Z 14001KT 28/20 A3007 RMK A01 T02800195  RH  060%=      5-min Rain = 0
KMD1 141410Z 17001KT 28/20 A3007 RMK A01 T02810196  RH  060%=      5-min Rain = 0
KMD1 141411Z 20000KT 28/20 A3007 RMK A01 T02830196  RH  059%=      5-min Rain = 0
KMD1 141412Z 18001KT 28/20 A3007 RMK A01 T02840197  RH  059%=      5-min Rain = 0
KMD1 141413Z 16001KT 29/20 A3007 RMK A01 T02860197  RH  059%=      5-min Rain = 0
KMD1 141414Z 17001KT 29/20 A3007 RMK A01 T02870197  RH  058%=      5-min Rain = 0
KMD1 141415Z 19001KT 29/20 A3007 RMK A01 T02880198  RH  058%=      5-min Rain = 0
KMD1 141416Z 18001KT 29/20 A3007 RMK A01 T02890199  RH  058%=      5-min Rain = 0
KMD1 141417Z 22001KT 29/20 A3007 RMK A01 T02890201  RH  059%=      5-min Rain = 0
KMD1 141418Z 20002KT 29/20 A3007 RMK A01 T02900200  RH  058%=      5-min Rain = 0
KMD1 141419Z 18002KT 29/20 A3007 RMK A01 T02900201  RH  058%=      5-min Rain = 0
KMD1 141420Z 17002KT 29/20 A3007 RMK A01 T02900202  RH  059%=      5-min Rain = 0
KMD1 141421Z 20000KT 29/20 A3007 RMK A01 T02890200  RH  059%=      5-min Rain = 0
KMD1 141422Z 14001KT 29/20 A3007 RMK A01 T02890200  RH  059%=      5-min Rain = 0
KMD1 141423Z 10000KT 29/20 A3007 RMK A01 T02910202  RH  059%=      5-min Rain = 0
KMD1 141424Z 29000KT 29/20 A3007 RMK A01 T02930203  RH  058%=      5-min Rain = 0
KMD1 141425Z 19000KT 30/20 A3007 RMK A01 T02950204  RH  058%=      5-min Rain = 0
KMD1 141426Z 21000KT 30/21 A3007 RMK A01 T02980205  RH  058%=      5-min Rain = 0
KMD1 141427Z 09001KT 30/21 A3007 RMK A01 T03000205  RH  057%=      5-min Rain = 0
KMD1 141428Z 08001KT 30/20 A3007 RMK A01 T03010204  RH  056%=      5-min Rain = 0
KMD1 141429Z 09001KT 30/21 A3007 RMK A01 T03030206  RH  056%=      5-min Rain = 0
KMD1 141430Z 15003KT 30/21 A3007 RMK A01 T03040206  RH  056%=      5-min Rain = 0
KMD1 141431Z 17002KT 30/21 A3007 RMK A01 T03040207  RH  056%=      5-min Rain = 0
KMD1 141432Z 19002KT 30/21 A3007 RMK A01 T03040207  RH  056%=      5-min Rain = 0
KMD1 141433Z 19003KT 30/21 A3007 RMK A01 T03030208  RH  057%=      5-min Rain = 0
KMD1 141434Z 20002KT 30/21 A3007 RMK A01 T03010206  RH  057%=      5-min Rain = 0
KMD1 141435Z 23002KT 30/21 A3007 RMK A01 T02990206  RH  057%=      5-min Rain = 0
KMD1 141436Z 24001KT 30/21 A3007 RMK A01 T02970206  RH  058%=      5-min Rain = 0
KMD1 141437Z 25002KT 30/21 A3007 RMK A01 T02970206  RH  058%=      5-min Rain = 0
KMD1 141438Z 26001KT 30/21 A3007 RMK A01 T02960206  RH  058%=      5-min Rain = 0
KMD1 141439Z 27002KT 30/21 A3007 RMK A01 T02960205  RH  058%=      5-min Rain = 0
KMD1 141440Z 27001KT 30/21 A3007 RMK A01 T02950206  RH  059%=      5-min Rain = 0
KMD1 141441Z 31000KT 30/21 A3007 RMK A01 T02950206  RH  059%=      5-min Rain = 0
KMD1 141442Z 24000KT 30/21 A3007 RMK A01 T02960206  RH  059%=      5-min Rain = 0
KMD1 141443Z 27001KT 30/21 A3007 RMK A01 T02980206  RH  058%=      5-min Rain = 0
KMD1 141444Z 27002KT 30/21 A3007 RMK A01 T02980205  RH  057%=      5-min Rain = 0
KMD1 141445Z 27002KT 30/21 A3007 RMK A01 T02980206  RH  058%=      5-min Rain = 0
KMD1 141446Z 26001KT 30/21 A3007 RMK A01 T02980206  RH  058%=      5-min Rain = 0
KMD1 141447Z 25001KT 30/21 A3007 RMK A01 T02980207  RH  058%=      5-min Rain = 0
KMD1 141448Z 21003KT 30/21 A3007 RMK A01 T03000208  RH  058%=      5-min Rain = 0
KMD1 141449Z 17002KT 30/21 A3007 RMK A01 T03000207  RH  057%=      5-min Rain = 0
KMD1 141450Z 15002KT 30/21 A3007 RMK A01 T03010208  RH  057%=      5-min Rain = 0
KMD1 141451Z 19001KT 30/21 A3007 RMK A01 T03010208  RH  058%=      5-min Rain = 0
KMD1 141452Z 16000KT 30/21 A3007 RMK A01 T03020208  RH  057%=      5-min Rain = 0
KMD1 141453Z 22001KT 30/21 A3007 RMK A01 T03020208  RH  057%=      5-min Rain = 0
KMD1 141454Z 27002KT 30/21 A3007 RMK A01 T03040209  RH  057%=      5-min Rain = 0
KMD1 141455Z 25002KT 31/21 A3007 RMK A01 T03050208  RH  056%=      5-min Rain = 0
KMD1 141456Z 24002KT 30/21 A3007 RMK A01 T03040209  RH  057%=      5-min Rain = 0
KMD1 141457Z 26002KT 30/21 A3007 RMK A01 T03030209  RH  057%=      5-min Rain = 0
KMD1 141458Z 20002KT 30/21 A3007 RMK A01 T03030210  RH  057%=      5-min Rain = 0
KMD1 141459Z 19003KT 30/21 A3007 RMK A01 T03040210  RH  057%=      5-min Rain = 0
KMD1 141500Z 21003KT 30/21 A3007 RMK A01 T03040209  RH  057%=      5-min Rain = 0
KMD1 141501Z 24005KT 31/21 A3007 RMK A01 T03050208  RH  056%=      5-min Rain = 0
KMD1 141502Z 25006KT 30/21 A3007 RMK A01 T03040207  RH  056%=      5-min Rain = 0
KMD1 141503Z 26005KT 30/21 A3007 RMK A01 T03040207  RH  056%=      5-min Rain = 0
KMD1 141504Z 22003KT 30/21 A3007 RMK A01 T03040211  RH  057%=      5-min Rain = 0
KMD1 141505Z 20003KT 31/21 A3007 RMK A01 T03060211  RH  057%=      5-min Rain = 0
KMD1 141506Z 21003KT 31/21 A3007 RMK A01 T03070210  RH  056%=      5-min Rain = 0
KMD1 141507Z 22003KT 31/21 A3007 RMK A01 T03070211  RH  057%=      5-min Rain = 0
KMD1 141508Z 19002KT 31/21 A3008 RMK A01 T03060211  RH  057%=      5-min Rain = 0
KMD1 141509Z 23003KT 31/21 A3008 RMK A01 T03060211  RH  057%=      5-min Rain = 0
KMD1 141510Z 22004KT 31/21 A3008 RMK A01 T03070209  RH  056%=      5-min Rain = 0
KMD1 141511Z 22002KT 31/21 A3008 RMK A01 T03070208  RH  056%=      5-min Rain = 0
KMD1 141512Z 20004KT 31/21 A3008 RMK A01 T03070210  RH  056%=      5-min Rain = 0
KMD1 141513Z 21006KT 31/21 A3008 RMK A01 T03080209  RH  056%=      5-min Rain = 0
KMD1 141514Z 24004KT 31/21 A3008 RMK A01 T03090207  RH  054%=      5-min Rain = 0
KMD1 141515Z 26003KT 31/21 A3008 RMK A01 T03100209  RH  055%=      5-min Rain = 0
KMD1 141516Z 29003KT 31/21 A3008 RMK A01 T03110210  RH  055%=      5-min Rain = 0
KMD1 141517Z 27003KT 31/21 A3008 RMK A01 T03110209  RH  055%=      5-min Rain = 0
KMD1 141518Z 28003KT 31/21 A3008 RMK A01 T03110207  RH  054%=      5-min Rain = 0
KMD1 141519Z 26003KT 31/21 A3008 RMK A01 T03120206  RH  053%=      5-min Rain = 0
KMD1 141520Z 24003KT 31/21 A3008 RMK A01 T03110206  RH  054%=      5-min Rain = 0
KMD1 141521Z 21004KT 31/21 A3008 RMK A01 T03130207  RH  054%=      5-min Rain = 0
KMD1 141522Z 20005KT 31/21 A3008 RMK A01 T03140209  RH  054%=      5-min Rain = 0
KMD1 141523Z 21004KT 32/21 A3008 RMK A01 T03160210  RH  053%=      5-min Rain = 0
KMD1 141524Z 21004KT 32/21 A3008 RMK A01 T03170208  RH  053%=      5-min Rain = 0
KMD1 141525Z 21006KT 32/20 A3008 RMK A01 T03170204  RH  051%=      5-min Rain = 0
KMD1 141526Z 22006KT 32/21 A3008 RMK A01 T03170206  RH  052%=      5-min Rain = 0
KMD1 141527Z 21005KT 31/20 A3008 RMK A01 T03140203  RH  052%=      5-min Rain = 0
KMD1 141528Z 22003KT 31/21 A3008 RMK A01 T03130206  RH  053%=      5-min Rain = 0
KMD1 141529Z 27003KT 31/21 A3008 RMK A01 T03140208  RH  053%=      5-min Rain = 0
KMD1 141530Z 26004KT 32/21 A3008 RMK A01 T03150205  RH  052%=      5-min Rain = 0
KMD1 141531Z 26003KT 32/21 A3009 RMK A01 T03160206  RH  052%=      5-min Rain = 0
KMD1 141532Z 26006KT 32/21 A3009 RMK A01 T03180206  RH  052%=      5-min Rain = 0
KMD1 141533Z 25007KT 32/21 A3009 RMK A01 T03180205  RH  051%=      5-min Rain = 0
KMD1 141534Z 24006KT 32/21 A3009 RMK A01 T03160205  RH  052%=      5-min Rain = 0
KMD1 141535Z 23006KT 32/20 A3009 RMK A01 T03160202  RH  051%=      5-min Rain = 0
KMD1 141536Z 23005KT 32/20 A3009 RMK A01 T03150203  RH  052%=      5-min Rain = 0
KMD1 141537Z 23006KT 32/20 A3009 RMK A01 T03150203  RH  052%=      5-min Rain = 0
KMD1 141538Z 24005KT 31/20 A3009 RMK A01 T03140203  RH  052%=      5-min Rain = 0
KMD1 141539Z 27003KT 31/21 A3009 RMK A01 T03130205  RH  053%=      5-min Rain = 0
KMD1 141540Z 25005KT 31/20 A3009 RMK A01 T03130204  RH  052%=      5-min Rain = 0
KMD1 141541Z 25005KT 31/20 A3009 RMK A01 T03130204  RH  052%=      5-min Rain = 0
KMD1 141542Z 26006KT 31/20 A3009 RMK A01 T03140203  RH  052%=      5-min Rain = 0
KMD1 141543Z 25005KT 31/20 A3009 RMK A01 T03130203  RH  052%=      5-min Rain = 0
KMD1 141544Z 25003KT 31/20 A3009 RMK A01 T03120204  RH  053%=      5-min Rain = 0
KMD1 141545Z 26005KT 31/21 A3009 RMK A01 T03120205  RH  053%=      5-min Rain = 0
KMD1 141546Z 26004KT 31/20 A3009 RMK A01 T03120204  RH  053%=      5-min Rain = 0
KMD1 141547Z 26004KT 31/21 A3009 RMK A01 T03120206  RH  053%=      5-min Rain = 0
KMD1 141548Z 25004KT 31/21 A3009 RMK A01 T03120205  RH  053%=      5-min Rain = 0
KMD1 141549Z 24004KT 31/21 A3009 RMK A01 T03130205  RH  053%=      5-min Rain = 0
KMD1 141550Z 24004KT 32/21 A3009 RMK A01 T03150205  RH  052%=      5-min Rain = 0
KMD1 141551Z 25004KT 32/21 A3009 RMK A01 T03170206  RH  052%=      5-min Rain = 0
KMD1 141552Z 23005KT 32/21 A3009 RMK A01 T03190205  RH  051%=      5-min Rain = 0
KMD1 141553Z 23004KT 32/20 A3009 RMK A01 T03200202  RH  050%=      5-min Rain = 0
KMD1 141554Z 23004KT 32/20 A3009 RMK A01 T03180201  RH  050%=      5-min Rain = 0
KMD1 141555Z 21004KT 32/20 A3009 RMK A01 T03160202  RH  051%=      5-min Rain = 0
KMD1 141556Z 22004KT 32/20 A3009 RMK A01 T03160201  RH  051%=      5-min Rain = 0
KMD1 141557Z 21003KT 32/20 A3009 RMK A01 T03150202  RH  051%=      5-min Rain = 0
KMD1 141558Z 24004KT 32/21 A3009 RMK A01 T03150206  RH  052%=      5-min Rain = 0
KMD1 141559Z 25005KT 32/21 A3009 RMK A01 T03150206  RH  052%=      5-min Rain = 0
KMD1 141600Z 25004KT 32/20 A3009 RMK A01 T03150204  RH  052%=      5-min Rain = 0
KMD1 141601Z 23004KT 31/20 A3009 RMK A01 T03140204  RH  052%=      5-min Rain = 0
KMD1 141602Z 21003KT 31/20 A301 RMK A01 T03140202  RH  051%=      5-min Rain = 0
KMD1 141603Z 19003KT 32/20 A3009 RMK A01 T03160204  RH  051%=      5-min Rain = 0
KMD1 141604Z 19002KT 32/20 A3009 RMK A01 T03170204  RH  051%=      5-min Rain = 0
KMD1 141605Z 23002KT 32/21 A301 RMK A01 T03180205  RH  051%=      5-min Rain = 0
KMD1 141606Z 29002KT 32/21 A301 RMK A01 T03190205  RH  051%=      5-min Rain = 0
KMD1 141607Z 29001KT 32/21 A301 RMK A01 T03190206  RH  051%=      5-min Rain = 0
KMD1 141608Z 28002KT 32/21 A301 RMK A01 T03210207  RH  051%=      5-min Rain = 0
KMD1 141609Z 29001KT 32/21 A301 RMK A01 T03240206  RH  050%=      5-min Rain = 0
KMD1 141610Z 23001KT 33/21 A301 RMK A01 T03250205  RH  049%=      5-min Rain = 0
KMD1 141611Z 23005KT 33/20 A301 RMK A01 T03260203  RH  048%=      5-min Rain = 0
KMD1 141612Z 23004KT 32/20 A301 RMK A01 T03240201  RH  048%=      5-min Rain = 0
KMD1 141613Z 22002KT 32/20 A301 RMK A01 T03220201  RH  049%=      5-min Rain = 0
KMD1 141614Z 28004KT 32/20 A301 RMK A01 T03210201  RH  049%=      5-min Rain = 0
KMD1 141615Z 26006KT 32/20 A301 RMK A01 T03210202  RH  049%=      5-min Rain = 0
KMD1 141616Z 27006KT 32/20 A301 RMK A01 T03200200  RH  049%=      5-min Rain = 0
KMD1 141617Z 26005KT 32/20 A301 RMK A01 T03190200  RH  049%=      5-min Rain = 0
KMD1 141618Z 25004KT 32/20 A301 RMK A01 T03170198  RH  049%=      5-min Rain = 0
KMD1 141619Z 26002KT 32/20 A301 RMK A01 T03170198  RH  049%=      5-min Rain = 0
KMD1 141620Z 25000KT 32/20 A301 RMK A01 T03170198  RH  049%=      5-min Rain = 0
KMD1 141621Z 31000KT 32/20 A301 RMK A01 T03170197  RH  049%=      5-min Rain = 0
KMD1 141622Z 25002KT 32/20 A301 RMK A01 T03180198  RH  049%=      5-min Rain = 0
KMD1 141623Z 19003KT 32/20 A301 RMK A01 T03180199  RH  049%=      5-min Rain = 0
KMD1 141624Z 20003KT 32/20 A301 RMK A01 T03190198  RH  049%=      5-min Rain = 0
KMD1 141625Z 20004KT 32/20 A301 RMK A01 T03190199  RH  049%=      5-min Rain = 0
KMD1 141626Z 18004KT 32/20 A301 RMK A01 T03190198  RH  049%=      5-min Rain = 0
KMD1 141627Z 17004KT 32/20 A301 RMK A01 T03180198  RH  049%=      5-min Rain = 0
KMD1 141628Z 16004KT 32/20 A301 RMK A01 T03180198  RH  049%=      5-min Rain = 0
KMD1 141629Z 15004KT 32/20 A301 RMK A01 T03180197  RH  049%=      5-min Rain = 0
KMD1 141630Z 14003KT 32/20 A301 RMK A01 T03180197  RH  049%=      5-min Rain = 0
KMD1 141631Z 17002KT 32/20 A301 RMK A01 T03180197  RH  049%=      5-min Rain = 0
KMD1 141632Z 20003KT 32/20 A301 RMK A01 T03190197  RH  048%=      5-min Rain = 0
KMD1 141633Z 22002KT 32/20 A301 RMK A01 T03190198  RH  049%=      5-min Rain = 0
KMD1 141634Z 22001KT 32/20 A301 RMK A01 T03200199  RH  049%=      5-min Rain = 0
KMD1 141635Z 21002KT 32/20 A301 RMK A01 T03210200  RH  049%=      5-min Rain = 0
KMD1 141636Z 22003KT 32/20 A301 RMK A01 T03220197  RH  048%=      5-min Rain = 0
KMD1 141637Z 21002KT 32/20 A301 RMK A01 T03220196  RH  047%=      5-min Rain = 0
KMD1 141638Z 22002KT 32/20 A301 RMK A01 T03220196  RH  047%=      5-min Rain = 0
KMD1 141639Z 21002KT 32/19 A301 RMK A01 T03220193  RH  047%=      5-min Rain = 0
KMD1 141640Z 22002KT 32/19 A301 RMK A01 T03220194  RH  047%=      5-min Rain = 0
KMD1 141641Z 20002KT 32/19 A301 RMK A01 T03220193  RH  046%=      5-min Rain = 0
KMD1 141642Z 20002KT 32/20 A301 RMK A01 T03220195  RH  047%=      5-min Rain = 0
KMD1 141643Z 21002KT 32/20 A301 RMK A01 T03230195  RH  047%=      5-min Rain = 0
KMD1 141644Z 19002KT 32/19 A301 RMK A01 T03230194  RH  046%=      5-min Rain = 0
KMD1 141645Z 20001KT 32/20 A301 RMK A01 T03240195  RH  046%=      5-min Rain = 0
KMD1 141646Z 00000KT 33/20 A301 RMK A01 T03270195  RH  046%=      5-min Rain = 0
KMD1 141647Z 23000KT 33/19 A301 RMK A01 T03290194  RH  045%=      5-min Rain = 0
KMD1 141648Z 22002KT 33/20 A301 RMK A01 T03310196  RH  045%=      5-min Rain = 0
KMD1 141649Z 21002KT 33/19 A301 RMK A01 T03320194  RH  044%=      5-min Rain = 0
KMD1 141650Z 24000KT 33/19 A301 RMK A01 T03310194  RH  044%=      5-min Rain = 0
KMD1 141651Z 16001KT 33/19 A301 RMK A01 T03300194  RH  045%=      5-min Rain = 0
KMD1 141652Z 29001KT 33/19 A301 RMK A01 T03310194  RH  045%=      5-min Rain = 0
KMD1 141653Z 27003KT 33/20 A301 RMK A01 T03310195  RH  045%=      5-min Rain = 0
KMD1 141654Z 24003KT 33/20 A301 RMK A01 T03310196  RH  045%=      5-min Rain = 0
KMD1 141655Z 23001KT 33/20 A301 RMK A01 T03320195  RH  045%=      5-min Rain = 0
KMD1 141656Z 20002KT 33/20 A301 RMK A01 T03310195  RH  045%=      5-min Rain = 0
KMD1 141657Z 19001KT 33/20 A301 RMK A01 T03300195  RH  045%=      5-min Rain = 0
KMD1 141658Z 32002KT 33/20 A301 RMK A01 T03300196  RH  045%=      5-min Rain = 0
KMD1 141659Z 31002KT 33/19 A301 RMK A01 T03300194  RH  045%=      5-min Rain = 0
KMD1 141700Z 28003KT 33/20 A301 RMK A01 T03300195  RH  045%=      5-min Rain = 0
KMD1 141701Z 33002KT 33/20 A301 RMK A01 T03300195  RH  045%=      5-min Rain = 0
KMD1 141702Z 31001KT 33/20 A301 RMK A01 T03310195  RH  045%=      5-min Rain = 0
KMD1 141703Z 31002KT 33/20 A301 RMK A01 T03330196  RH  044%=      5-min Rain = 0
KMD1 141704Z 33003KT 33/20 A301 RMK A01 T03340196  RH  044%=      5-min Rain = 0
KMD1 141705Z 35003KT 33/20 A301 RMK A01 T03330195  RH  044%=      5-min Rain = 0
KMD1 141706Z 35005KT 33/20 A301 RMK A01 T03330195  RH  044%=      5-min Rain = 0
KMD1 141707Z 35004KT 33/19 A301 RMK A01 T03330194  RH  044%=      5-min Rain = 0
KMD1 141708Z 35003KT 33/19 A3009 RMK A01 T03300193  RH  044%=      5-min Rain = 0
KMD1 141709Z 01003KT 33/19 A3009 RMK A01 T03290193  RH  045%=      5-min Rain = 0
KMD1 141710Z 01001KT 33/19 A3009 RMK A01 T03280193  RH  045%=      5-min Rain = 0
KMD1 141711Z 15000KT 33/19 A3009 RMK A01 T03280192  RH  045%=      5-min Rain = 0
KMD1 141712Z 22000KT 33/19 A3009 RMK A01 T03280192  RH  044%=      5-min Rain = 0
KMD1 141713Z 00002KT 33/19 A3009 RMK A01 T03290193  RH  045%=      5-min Rain = 0
KMD1 141714Z 01003KT 33/19 A3009 RMK A01 T03300193  RH  044%=      5-min Rain = 0
KMD1 141715Z 01002KT 33/19 A3009 RMK A01 T03280192  RH  045%=      5-min Rain = 0
KMD1 141716Z 34002KT 33/19 A3009 RMK A01 T03280193  RH  045%=      5-min Rain = 0
KMD1 141717Z 34002KT 33/19 A3009 RMK A01 T03270193  RH  045%=      5-min Rain = 0
KMD1 141718Z 32002KT 33/19 A3009 RMK A01 T03280194  RH  045%=      5-min Rain = 0
KMD1 141719Z 30004KT 33/20 A3009 RMK A01 T03290197  RH  046%=      5-min Rain = 0
KMD1 141720Z 29004KT 33/20 A3009 RMK A01 T03300196  RH  045%=      5-min Rain = 0
KMD1 141721Z 29004KT 33/20 A3009 RMK A01 T03300198  RH  046%=      5-min Rain = 0
KMD1 141722Z 29005KT 33/20 A3009 RMK A01 T03300199  RH  046%=      5-min Rain = 0
KMD1 141723Z 30004KT 33/20 A3009 RMK A01 T03310198  RH  045%=      5-min Rain = 0
KMD1 141724Z 30003KT 33/20 A3009 RMK A01 T03300196  RH  045%=      5-min Rain = 0
KMD1 141725Z 28002KT 33/20 A3009 RMK A01 T03290196  RH  046%=      5-min Rain = 0
KMD1 141726Z 29002G7KT 33/20 A3009 RMK A01 T03280197  RH  046%=      5-min Rain = 0
KMD1 141727Z 29006KT 33/20 A3009 RMK A01 T03290198  RH  046%=      5-min Rain = 0
KMD1 141728Z 27003KT 33/20 A3009 RMK A01 T03280198  RH  046%=      5-min Rain = 0
KMD1 141729Z 27003KT 33/20 A3009 RMK A01 T03280200  RH  047%=      5-min Rain = 0
KMD1 141730Z 31004KT 33/20 A3009 RMK A01 T03300200  RH  047%=      5-min Rain = 0
KMD1 141731Z 32006KT 33/20 A3009 RMK A01 T03300200  RH  046%=      5-min Rain = 0
KMD1 141732Z 31007KT 33/20 A3009 RMK A01 T03310200  RH  046%=      5-min Rain = 0
KMD1 141733Z 31007KT 33/20 A3009 RMK A01 T03290199  RH  046%=      5-min Rain = 0
KMD1 141734Z 30005KT 33/20 A3009 RMK A01 T03280199  RH  047%=      5-min Rain = 0
KMD1 141735Z 30005KT 33/20 A3009 RMK A01 T03270198  RH  047%=      5-min Rain = 0
KMD1 141736Z 31006KT 33/20 A3009 RMK A01 T03270199  RH  047%=      5-min Rain = 0
KMD1 141737Z 29004KT 33/20 A3009 RMK A01 T03270200  RH  047%=      5-min Rain = 0
KMD1 141738Z 27004KT 33/20 A3009 RMK A01 T03270200  RH  047%=      5-min Rain = 0
KMD1 141739Z 29005KT 33/20 A3009 RMK A01 T03290201  RH  047%=      5-min Rain = 0
KMD1 141740Z 28004KT 33/20 A3009 RMK A01 T03300199  RH  046%=      5-min Rain = 0
KMD1 141741Z 35004KT 33/20 A3009 RMK A01 T03300201  RH  047%=      5-min Rain = 0
KMD1 141742Z 33004KT 33/20 A3009 RMK A01 T03320201  RH  046%=      5-min Rain = 0
KMD1 141743Z 34005KT 34/20 A3009 RMK A01 T03350202  RH  046%=      5-min Rain = 0
KMD1 141744Z 33004KT 34/20 A3009 RMK A01 T03380199  RH  044%=      5-min Rain = 0
KMD1 141745Z 31003KT 34/20 A3009 RMK A01 T03380200  RH  044%=      5-min Rain = 0
KMD1 141746Z 33003KT 34/20 A3009 RMK A01 T03380199  RH  044%=      5-min Rain = 0
KMD1 141747Z 35003KT 34/20 A3009 RMK A01 T03370198  RH  044%=      5-min Rain = 0
KMD1 141748Z 33002KT 34/20 A3008 RMK A01 T03360199  RH  044%=      5-min Rain = 0
KMD1 141749Z 32001KT 34/20 A3008 RMK A01 T03380198  RH  044%=      5-min Rain = 0
KMD1 141750Z 33001KT 34/20 A3008 RMK A01 T03390197  RH  044%=      5-min Rain = 0
KMD1 141751Z 32000KT 34/20 A3008 RMK A01 T03390198  RH  044%=      5-min Rain = 0
KMD1 141752Z 00000KT 34/20 A3008 RMK A01 T03390199  RH  044%=      5-min Rain = 0
KMD1 141753Z 28001KT 34/20 A3008 RMK A01 T03420199  RH  043%=      5-min Rain = 0
KMD1 141754Z 30002KT 34/20 A3008 RMK A01 T03420198  RH  043%=      5-min Rain = 0
KMD1 141755Z 32001KT 34/20 A3008 RMK A01 T03410196  RH  043%=      5-min Rain = 0
KMD1 141756Z 33002KT 34/20 A3008 RMK A01 T03400197  RH  043%=      5-min Rain = 0
KMD1 141757Z 35004KT 34/20 A3008 RMK A01 T03400199  RH  044%=      5-min Rain = 0
KMD1 141758Z 35003KT 34/20 A3008 RMK A01 T03390197  RH  043%=      5-min Rain = 0
KMD1 141759Z 36002KT 34/20 A3008 RMK A01 T03360196  RH  044%=      5-min Rain = 0
KMD1 141800Z 03003KT 34/20 A3008 RMK A01 T03360196  RH  044%=      5-min Rain = 0
KMD1 141801Z 04003KT 34/20 A3008 RMK A01 T03350195  RH  044%=      5-min Rain = 0
KMD1 141802Z 03004KT 34/20 A3008 RMK A01 T03350196  RH  044%=      5-min Rain = 0
KMD1 141803Z 03003KT 34/20 A3008 RMK A01 T03350195  RH  044%=      5-min Rain = 0
KMD1 141804Z 35004KT 34/20 A3008 RMK A01 T03370197  RH  044%=      5-min Rain = 0
KMD1 141805Z 35003KT 34/20 A3008 RMK A01 T03390199  RH  044%=      5-min Rain = 0
KMD1 141806Z 36003KT 34/20 A3008 RMK A01 T03410197  RH  043%=      5-min Rain = 0
KMD1 141807Z 33003KT 34/20 A3008 RMK A01 T03420198  RH  043%=      5-min Rain = 0
KMD1 141808Z 34003KT 34/20 A3008 RMK A01 T03420196  RH  042%=      5-min Rain = 0
KMD1 141809Z 35003KT 34/20 A3008 RMK A01 T03400196  RH  043%=      5-min Rain = 0
KMD1 141810Z 01002KT 34/20 A3008 RMK A01 T03390195  RH  043%=      5-min Rain = 0
KMD1 141811Z 35001KT 34/20 A3008 RMK A01 T03380195  RH  043%=      5-min Rain = 0
KMD1 141812Z 07000KT 34/20 A3008 RMK A01 T03370196  RH  043%=      5-min Rain = 0
KMD1 141813Z 13001KT 34/20 A3007 RMK A01 T03380197  RH  044%=      5-min Rain = 0
KMD1 141814Z 07001KT 34/20 A3007 RMK A01 T03390195  RH  043%=      5-min Rain = 0
KMD1 141815Z 25000KT 34/20 A3007 RMK A01 T03390195  RH  043%=      5-min Rain = 0
KMD1 141816Z 00001KT 34/20 A3007 RMK A01 T03390195  RH  043%=      5-min Rain = 0
KMD1 141817Z 29001KT 34/20 A3007 RMK A01 T03410196  RH  043%=      5-min Rain = 0
KMD1 141818Z 31001KT 34/19 A3007 RMK A01 T03410194  RH  042%=      5-min Rain = 0
KMD1 141819Z 30001KT 34/19 A3007 RMK A01 T03420194  RH  042%=      5-min Rain = 0
KMD1 141820Z 30001KT 34/19 A3007 RMK A01 T03420193  RH  042%=      5-min Rain = 0
KMD1 141821Z 27002KT 34/19 A3007 RMK A01 T03420193  RH  042%=      5-min Rain = 0
KMD1 141822Z 26001KT 34/19 A3007 RMK A01 T03430193  RH  041%=      5-min Rain = 0
KMD1 141823Z 24000KT 34/19 A3007 RMK A01 T03420192  RH  041%=      5-min Rain = 0
KMD1 141824Z 28001KT 34/19 A3007 RMK A01 T03420194  RH  042%=      5-min Rain = 0
KMD1 141825Z 27001KT 34/19 A3007 RMK A01 T03440192  RH  041%=      5-min Rain = 0
KMD1 141826Z 19001KT 35/19 A3007 RMK A01 T03450191  RH  040%=      5-min Rain = 0
KMD1 141827Z 18000KT 35/19 A3007 RMK A01 T03450193  RH  041%=      5-min Rain = 0
KMD1 141828Z 00000KT 35/19 A3007 RMK A01 T03470194  RH  041%=      5-min Rain = 0
KMD1 141829Z 11000KT 35/20 A3006 RMK A01 T03510195  RH  040%=      5-min Rain = 0
KMD1 141830Z 25001KT 35/19 A3006 RMK A01 T03530193  RH  039%=      5-min Rain = 0
KMD1 141831Z 36001KT 35/20 A3006 RMK A01 T03540195  RH  039%=      5-min Rain = 0
KMD1 141832Z 33003KT 36/20 A3006 RMK A01 T03550197  RH  039%=      5-min Rain = 0
KMD1 141833Z 01002KT 35/19 A3006 RMK A01 T03540194  RH  039%=      5-min Rain = 0
KMD1 141834Z 02001KT 35/19 A3006 RMK A01 T03520192  RH  039%=      5-min Rain = 0
KMD1 141835Z 02003KT 35/20 A3006 RMK A01 T03520197  RH  040%=      5-min Rain = 0
KMD1 141836Z 03003KT 36/20 A3006 RMK A01 T03560195  RH  039%=      5-min Rain = 0
KMD1 141837Z 03002KT 35/19 A3006 RMK A01 T03520193  RH  039%=      5-min Rain = 0
KMD1 141838Z 06002KT 35/19 A3006 RMK A01 T03490194  RH  040%=      5-min Rain = 0
KMD1 141839Z 07004KT 35/20 A3006 RMK A01 T03490196  RH  041%=      5-min Rain = 0
KMD1 141840Z 09002KT 35/19 A3006 RMK A01 T03480193  RH  040%=      5-min Rain = 0
KMD1 141841Z 15001KT 35/20 A3006 RMK A01 T03470195  RH  041%=      5-min Rain = 0
KMD1 141842Z 12003KT 35/20 A3006 RMK A01 T03480195  RH  041%=      5-min Rain = 0
KMD1 141843Z 08004KT 35/20 A3006 RMK A01 T03500198  RH  041%=      5-min Rain = 0
KMD1 141844Z 08004KT 35/20 A3006 RMK A01 T03520195  RH  040%=      5-min Rain = 0
KMD1 141845Z 08003KT 35/19 A3006 RMK A01 T03490194  RH  040%=      5-min Rain = 0
KMD1 141846Z 09003KT 35/20 A3006 RMK A01 T03470195  RH  041%=      5-min Rain = 0
KMD1 141847Z 09002KT 35/19 A3006 RMK A01 T03450194  RH  041%=      5-min Rain = 0
KMD1 141848Z 08001KT 34/20 A3006 RMK A01 T03440195  RH  042%=      5-min Rain = 0
KMD1 141849Z 18001KT 35/20 A3006 RMK A01 T03470195  RH  041%=      5-min Rain = 0
KMD1 141850Z 25004KT 35/19 A3006 RMK A01 T03490194  RH  040%=      5-min Rain = 0
KMD1 141851Z 25003KT 35/19 A3006 RMK A01 T03480193  RH  040%=      5-min Rain = 0
KMD1 141852Z 22002KT 35/19 A3006 RMK A01 T03450193  RH  041%=      5-min Rain = 0
KMD1 141853Z 18004KT 34/19 A3006 RMK A01 T03440194  RH  041%=      5-min Rain = 0
KMD1 141854Z 17003KT 35/19 A3006 RMK A01 T03450193  RH  041%=      5-min Rain = 0
KMD1 141855Z 16003KT 34/19 A3006 RMK A01 T03440191  RH  041%=      5-min Rain = 0
KMD1 141856Z 16003KT 34/19 A3005 RMK A01 T03420190  RH  041%=      5-min Rain = 0
KMD1 141857Z 16003KT 34/19 A3005 RMK A01 T03420192  RH  041%=      5-min Rain = 0
KMD1 141858Z 11002KT 34/19 A3005 RMK A01 T03420193  RH  042%=      5-min Rain = 0
KMD1 141859Z 33000KT 34/19 A3005 RMK A01 T03430192  RH  041%=      5-min Rain = 0
KMD1 141900Z 32003KT 35/19 A3005 RMK A01 T03450194  RH  041%=      5-min Rain = 0
KMD1 141901Z 35004KT 35/20 A3005 RMK A01 T03460198  RH  042%=      5-min Rain = 0
KMD1 141902Z 31004KT 35/20 A3005 RMK A01 T03460197  RH  042%=      5-min Rain = 0
KMD1 141903Z 28004KT 35/19 A3005 RMK A01 T03470192  RH  040%=      5-min Rain = 0
KMD1 141904Z 34002KT 35/20 A3005 RMK A01 T03470195  RH  041%=      5-min Rain = 0
KMD1 141905Z 36004KT 35/20 A3005 RMK A01 T03480198  RH  041%=      5-min Rain = 0
KMD1 141906Z 34005KT 35/20 A3005 RMK A01 T03480198  RH  042%=      5-min Rain = 0
KMD1 141907Z 30004KT 35/20 A3005 RMK A01 T03470198  RH  042%=      5-min Rain = 0
KMD1 141908Z 30005KT 35/20 A3005 RMK A01 T03470196  RH  041%=      5-min Rain = 0
KMD1 141909Z 31006KT 35/20 A3005 RMK A01 T03470200  RH  042%=      5-min Rain = 0
KMD1 141910Z 34008KT 35/20 A3005 RMK A01 T03450200  RH  043%=      5-min Rain = 0
KMD1 141911Z 33006KT 34/20 A3005 RMK A01 T03430199  RH  043%=      5-min Rain = 0
KMD1 141912Z 33005KT 34/20 A3005 RMK A01 T03410198  RH  043%=      5-min Rain = 0
KMD1 141913Z 33005KT 34/20 A3005 RMK A01 T03400199  RH  044%=      5-min Rain = 0
KMD1 141914Z 00006KT 34/20 A3005 RMK A01 T03390199  RH  044%=      5-min Rain = 0
KMD1 141915Z 00008KT 34/20 A3005 RMK A01 T03400200  RH  044%=      5-min Rain = 0
KMD1 141916Z 36006KT 34/20 A3005 RMK A01 T03400199  RH  043%=      5-min Rain = 0
KMD1 141917Z 01004KT 34/20 A3005 RMK A01 T03390199  RH  044%=      5-min Rain = 0
KMD1 141918Z 33005KT 34/20 A3005 RMK A01 T03390200  RH  044%=      5-min Rain = 0
KMD1 141919Z 32010KT 34/20 A3005 RMK A01 T03380200  RH  044%=      5-min Rain = 0
KMD1 141920Z 33009KT 34/20 A3005 RMK A01 T03350201  RH  045%=      5-min Rain = 0
KMD1 141921Z 32008KT 33/20 A3005 RMK A01 T03330202  RH  046%=      5-min Rain = 0
KMD1 141922Z 32011KT 33/20 A3005 RMK A01 T03320201  RH  046%=      5-min Rain = 0
KMD1 141923Z 31009KT 33/20 A3005 RMK A01 T03300200  RH  047%=      5-min Rain = 0
KMD1 141924Z 31009KT 33/20 A3005 RMK A01 T03290202  RH  047%=      5-min Rain = 0
KMD1 141925Z 32010KT 33/20 A3005 RMK A01 T03290202  RH  047%=      5-min Rain = 0
KMD1 141926Z 32010KT 33/20 A3005 RMK A01 T03280200  RH  047%=      5-min Rain = 0
KMD1 141927Z 32009KT 33/20 A3005 RMK A01 T03260201  RH  048%=      5-min Rain = 0
KMD1 141928Z 31009KT 33/20 A3005 RMK A01 T03260201  RH  048%=      5-min Rain = 0
KMD1 141929Z 30010KT 33/20 A3005 RMK A01 T03270201  RH  048%=      5-min Rain = 0
KMD1 141930Z 30011KT 33/20 A3006 RMK A01 T03270200  RH  047%=      5-min Rain = 0
KMD1 141931Z 29013G19KT 33/20 A3006 RMK A01 T03260201  RH  048%=      5-min Rain = 0
KMD1 141932Z 29017KT 32/19 A3006 RMK A01 T03240189  RH  045%=      5-min Rain = 0
KMD1 141933Z 30014G19KT 32/19 A3006 RMK A01 T03170185  RH  045%=      5-min Rain = 0
KMD1 141934Z 30014KT 31/18 A3006 RMK A01 T03120184  RH  047%=      5-min Rain = 0
KMD1 141935Z 30014G22KT 31/19 A3006 RMK A01 T03090187  RH  048%=      5-min Rain = 0
KMD1 141936Z 31014KT 30/19 A3006 RMK A01 T03040190  RH  050%=      5-min Rain = 0
KMD1 141937Z 32016KT 30/19 A3006 RMK A01 T02990191  RH  052%=      5-min Rain = 0
KMD1 141938Z 31013KT 29/19 A3006 RMK A01 T02940192  RH  054%=      5-min Rain = 0
KMD1 141939Z 31011KT 29/19 A3005 RMK A01 T02900193  RH  056%=      5-min Rain = 0
KMD1 141940Z 31013KT 29/19 A3005 RMK A01 T02890193  RH  056%=      5-min Rain = 0
KMD1 141941Z 31013KT 29/19 A3005 RMK A01 T02870192  RH  056%=      5-min Rain = 0
KMD1 141942Z 31014KT 29/19 A3005 RMK A01 T02860192  RH  057%=      5-min Rain = 0
KMD1 141943Z 32010KT 29/19 A3005 RMK A01 T02850192  RH  057%=      5-min Rain = 0
KMD1 141944Z 33012KT 28/19 A3005 RMK A01 T02840192  RH  058%=      5-min Rain = 0
KMD1 141945Z 33012KT 28/19 A3005 RMK A01 T02840193  RH  058%=      5-min Rain = 0
KMD1 141946Z 32013KT 28/19 A3005 RMK A01 T02830193  RH  058%=      5-min Rain = 0
KMD1 141947Z 32014KT 28/19 A3005 RMK A01 T02820192  RH  058%=      5-min Rain = 0
KMD1 141948Z 31013KT 28/19 A3005 RMK A01 T02810191  RH  058%=      5-min Rain = 0
KMD1 141949Z 31013G18KT 28/19 A3005 RMK A01 T02800190  RH  058%=      5-min Rain = 0
KMD1 141950Z 31012KT 28/19 A3005 RMK A01 T02800190  RH  058%=      5-min Rain = 0
KMD1 141951Z 31010KT 28/19 A3004 RMK A01 T02800190  RH  058%=      5-min Rain = 0
KMD1 141952Z 31011KT 28/19 A3004 RMK A01 T02800190  RH  058%=      5-min Rain = 0
KMD1 141953Z 32011KT 28/19 A3004 RMK A01 T02800190  RH  058%=      5-min Rain = 0
KMD1 141954Z 32009KT 28/19 A3004 RMK A01 T02800191  RH  058%=      5-min Rain = 0
KMD1 141955Z 32009KT 28/19 A3005 RMK A01 T02820191  RH  058%=      5-min Rain = 0
KMD1 141956Z 32010KT 28/19 A3005 RMK A01 T02830191  RH  058%=      5-min Rain = 0
KMD1 141957Z 32011G17KT 28/19 A3005 RMK A01 T02830192  RH  058%=      5-min Rain = 0
KMD1 141958Z 33012G17KT 28/19 A3004 RMK A01 T02830192  RH  058%=      5-min Rain = 0
KMD1 141959Z 32013KT 28/19 A3004 RMK A01 T02830193  RH  058%=      5-min Rain = 0
KMD1 142000Z 34008G16KT 28/19 A3004 RMK A01 T02820194  RH  059%=      5-min Rain = 0
KMD1 142001Z 33011KT 28/20 A3004 RMK A01 T02820196  RH  060%=      5-min Rain = 0
KMD1 142002Z 33010KT 28/20 A3004 RMK A01 T02810196  RH  060%=      5-min Rain = 0
KMD1 142003Z 32011KT 28/20 A3004 RMK A01 T02800197  RH  061%=      5-min Rain = 0
KMD1 142004Z 32009KT 28/20 A3004 RMK A01 T02790196  RH  061%=      5-min Rain = 0
KMD1 142005Z 33007KT 28/20 A3004 RMK A01 T02790196  RH  061%=      5-min Rain = 0
KMD1 142006Z 32011KT 28/20 A3004 RMK A01 T02790195  RH  060%=      5-min Rain = 0
KMD1 142007Z 33011KT 28/19 A3004 RMK A01 T02780193  RH  060%=      5-min Rain = 0
KMD1 142008Z 33007KT 28/19 A3004 RMK A01 T02790192  RH  059%=      5-min Rain = 0
KMD1 142009Z 33010KT 28/19 A3004 RMK A01 T02790190  RH  059%=      5-min Rain = 0
KMD1 142010Z 33009KT 28/19 A3004 RMK A01 T02790187  RH  058%=      5-min Rain = 0
KMD1 142011Z 33008KT 28/19 A3004 RMK A01 T02790187  RH  057%=      5-min Rain = 0
KMD1 142012Z 34006KT 28/19 A3004 RMK A01 T02800188  RH  057%=      5-min Rain = 0
KMD1 142013Z 34008KT 28/19 A3004 RMK A01 T02800187  RH  057%=      5-min Rain = 0
KMD1 142014Z 34008KT 28/19 A3004 RMK A01 T02810186  RH  056%=      5-min Rain = 0
KMD1 142015Z 35007KT 28/19 A3004 RMK A01 T02810187  RH  057%=      5-min Rain = 0
KMD1 142016Z 34008KT 28/19 A3004 RMK A01 T02810186  RH  057%=      5-min Rain = 0
KMD1 142017Z 35007KT 28/19 A3004 RMK A01 T02800187  RH  057%=      5-min Rain = 0
KMD1 142018Z 36006KT 28/19 A3004 RMK A01 T02800187  RH  057%=      5-min Rain = 0
KMD1 142019Z 01005KT 28/19 A3004 RMK A01 T02800187  RH  057%=      5-min Rain = 0
KMD1 142020Z 03004KT 28/19 A3004 RMK A01 T02790187  RH  057%=      5-min Rain = 0
KMD1 142021Z 04005KT 28/19 A3004 RMK A01 T02800188  RH  057%=      5-min Rain = 0
KMD1 142022Z 06004KT 28/19 A3004 RMK A01 T02800188  RH  057%=      5-min Rain = 0
KMD1 142023Z 06004KT 28/19 A3004 RMK A01 T02800188  RH  057%=      5-min Rain = 0
KMD1 142024Z 04004KT 28/19 A3004 RMK A01 T02800188  RH  058%=      5-min Rain = 0
KMD1 142025Z 04004KT 28/19 A3004 RMK A01 T02790188  RH  058%=      5-min Rain = 0
KMD1 142026Z 02005KT 28/19 A3004 RMK A01 T02790187  RH  058%=      5-min Rain = 0
KMD1 142027Z 01004KT 28/19 A3004 RMK A01 T02790187  RH  057%=      5-min Rain = 0
KMD1 142028Z 01005KT 28/19 A3004 RMK A01 T02790186  RH  057%=      5-min Rain = 0
KMD1 142029Z 02004KT 28/19 A3004 RMK A01 T02790185  RH  057%=      5-min Rain = 0
KMD1 142030Z 07003KT 28/19 A3004 RMK A01 T02790186  RH  057%=      5-min Rain = 0
KMD1 142031Z 11005KT 28/19 A3004 RMK A01 T02800188  RH  057%=      5-min Rain = 0
KMD1 142032Z 11005KT 28/19 A3004 RMK A01 T02800188  RH  057%=      5-min Rain = 0
KMD1 142033Z 11005KT 28/19 A3004 RMK A01 T02800188  RH  057%=      5-min Rain = 0
KMD1 142034Z 11005KT 28/19 A3004 RMK A01 T02800188  RH  057%=      5-min Rain = 0
KMD1 142035Z 12006KT 28/19 A3004 RMK A01 T02800189  RH  057%=      5-min Rain = 0
KMD1 142036Z 12008KT 28/19 A3004 RMK A01 T02810188  RH  057%=      5-min Rain = 0
KMD1 142037Z 13008KT 28/19 A3004 RMK A01 T02810189  RH  057%=      5-min Rain = 0
KMD1 142038Z 12008KT 28/19 A3004 RMK A01 T02810190  RH  058%=      5-min Rain = 0
KMD1 142039Z 12008KT 28/19 A3004 RMK A01 T02810190  RH  058%=      5-min Rain = 0
KMD1 142040Z 12007KT 28/19 A3004 RMK A01 T02810190  RH  058%=      5-min Rain = 0
KMD1 142041Z 12006KT 28/19 A3004 RMK A01 T02820190  RH  058%=      5-min Rain = 0
KMD1 142042Z 11005KT 28/19 A3004 RMK A01 T02820191  RH  058%=      5-min Rain = 0
KMD1 142043Z 10006KT 28/19 A3004 RMK A01 T02830190  RH  057%=      5-min Rain = 0
KMD1 142044Z 10005KT 28/19 A3004 RMK A01 T02830191  RH  058%=      5-min Rain = 0
KMD1 142045Z 09004KT 28/19 A3004 RMK A01 T02830193  RH  058%=      5-min Rain = 0
KMD1 142046Z 09005KT 28/20 A3004 RMK A01 T02820195  RH  059%=      5-min Rain = 0
KMD1 142047Z 09006KT 28/20 A3004 RMK A01 T02820195  RH  059%=      5-min Rain = 0
KMD1 142048Z 10005KT 28/20 A3004 RMK A01 T02820196  RH  059%=      5-min Rain = 0
KMD1 142049Z 10005KT 28/20 A3004 RMK A01 T02820195  RH  059%=      5-min Rain = 0
KMD1 142050Z 10005KT 28/20 A3004 RMK A01 T02810195  RH  060%=      5-min Rain = 0
KMD1 142051Z 11005KT 28/20 A3004 RMK A01 T02810195  RH  059%=      5-min Rain = 0
KMD1 142052Z 11005KT 28/20 A3004 RMK A01 T02810196  RH  060%=      5-min Rain = 0
KMD1 142053Z 12004KT 28/20 A3004 RMK A01 T02820196  RH  060%=      5-min Rain = 0
KMD1 142054Z 13003KT 28/20 A3004 RMK A01 T02810196  RH  060%=      5-min Rain = 0
KMD1 142055Z 12002KT 28/20 A3004 RMK A01 T02820197  RH  060%=      5-min Rain = 0
KMD1 142056Z 12002KT 28/20 A3004 RMK A01 T02820198  RH  060%=      5-min Rain = 0
KMD1 142057Z 11003KT 28/20 A3004 RMK A01 T02820200  RH  061%=      5-min Rain = 0
KMD1 142058Z 11002KT 28/20 A3004 RMK A01 T02830197  RH  060%=      5-min Rain = 0
KMD1 142059Z 08001KT 28/20 A3004 RMK A01 T02830199  RH  060%=      5-min Rain = 0
KMD1 142100Z 09002KT 28/20 A3004 RMK A01 T02830197  RH  060%=      5-min Rain = 0
KMD1 142101Z 10002KT 28/20 A3004 RMK A01 T02830197  RH  060%=      5-min Rain = 0
KMD1 142102Z 11001KT 28/20 A3004 RMK A01 T02830196  RH  059%=      5-min Rain = 0
KMD1 142103Z 12001KT 28/20 A3004 RMK A01 T02830198  RH  060%=      5-min Rain = 0
KMD1 142104Z 12002KT 28/20 A3004 RMK A01 T02830198  RH  060%=      5-min Rain = 0
KMD1 142105Z 12001KT 28/20 A3004 RMK A01 T02830196  RH  059%=      5-min Rain = 0
KMD1 142106Z 13001KT 28/20 A3004 RMK A01 T02840196  RH  059%=      5-min Rain = 0
KMD1 142107Z 13000KT 28/20 A3004 RMK A01 T02840196  RH  059%=      5-min Rain = 0
KMD1 142108Z 19001KT 28/20 A3003 RMK A01 T02840196  RH  059%=      5-min Rain = 0
KMD1 142109Z 21002KT 28/20 A3003 RMK A01 T02840199  RH  060%=      5-min Rain = 0
KMD1 142110Z 21004KT 29/20 A3003 RMK A01 T02850200  RH  060%=      5-min Rain = 0
KMD1 142111Z 22004KT 29/20 A3003 RMK A01 T02850200  RH  060%=      5-min Rain = 0
KMD1 142112Z 23004KT 29/20 A3003 RMK A01 T02850197  RH  059%=      5-min Rain = 0
KMD1 142113Z 22003KT 29/20 A3003 RMK A01 T02850196  RH  059%=      5-min Rain = 0
KMD1 142114Z 23003KT 29/20 A3003 RMK A01 T02850198  RH  059%=      5-min Rain = 0
KMD1 142115Z 21003KT 28/20 A3003 RMK A01 T02840196  RH  059%=      5-min Rain = 0
KMD1 142116Z 21002KT 28/20 A3003 RMK A01 T02840195  RH  059%=      5-min Rain = 0
KMD1 142117Z 22003KT 28/20 A3003 RMK A01 T02830196  RH  059%=      5-min Rain = 0
KMD1 142118Z 24005KT 28/20 A3003 RMK A01 T02830197  RH  059%=      5-min Rain = 0
KMD1 142119Z 24007KT 28/19 A3003 RMK A01 T02840194  RH  058%=      5-min Rain = 0
KMD1 142120Z 23006KT 28/19 A3003 RMK A01 T02830190  RH  057%=      5-min Rain = 0
KMD1 142121Z 24005KT 28/19 A3003 RMK A01 T02820189  RH  057%=      5-min Rain = 0
KMD1 142122Z 24005KT 28/19 A3003 RMK A01 T02810190  RH  058%=      5-min Rain = 0
KMD1 142123Z 23005KT 28/19 A3003 RMK A01 T02810190  RH  057%=      5-min Rain = 0
KMD1 142124Z 23004KT 28/19 A3003 RMK A01 T02810190  RH  058%=      5-min Rain = 0
KMD1 142125Z 23004KT 28/19 A3003 RMK A01 T02810190  RH  058%=      5-min Rain = 0
KMD1 142126Z 23005KT 28/19 A3003 RMK A01 T02810189  RH  057%=      5-min Rain = 0
KMD1 142127Z 23005KT 28/19 A3003 RMK A01 T02810189  RH  057%=      5-min Rain = 0
KMD1 142128Z 23006KT 28/19 A3003 RMK A01 T02800187  RH  057%=      5-min Rain = 0
KMD1 142129Z 22004KT 28/19 A3002 RMK A01 T02800186  RH  057%=      5-min Rain = 0
KMD1 142130Z 22004KT 28/19 A3002 RMK A01 T02790187  RH  057%=      5-min Rain = 0
KMD1 142131Z 21003KT 28/19 A3002 RMK A01 T02800188  RH  058%=      5-min Rain = 0
KMD1 142132Z 20004KT 28/19 A3002 RMK A01 T02790190  RH  058%=      5-min Rain = 0
KMD1 142133Z 19004KT 28/19 A3002 RMK A01 T02790191  RH  059%=      5-min Rain = 0
KMD1 142134Z 19004KT 28/19 A3002 RMK A01 T02790190  RH  058%=      5-min Rain = 0
KMD1 142135Z 20004KT 28/19 A3002 RMK A01 T02790189  RH  058%=      5-min Rain = 0
KMD1 142136Z 20004KT 28/19 A3002 RMK A01 T02780191  RH  059%=      5-min Rain = 0
KMD1 142137Z 21004KT 28/19 A3002 RMK A01 T02780190  RH  059%=      5-min Rain = 0
KMD1 142138Z 21004KT 28/19 A3002 RMK A01 T02790192  RH  059%=      5-min Rain = 0
KMD1 142139Z 22004KT 28/19 A3002 RMK A01 T02790194  RH  060%=      5-min Rain = 0
KMD1 142140Z 22004KT 28/19 A3002 RMK A01 T02790194  RH  060%=      5-min Rain = 0
KMD1 142141Z 22004KT 28/20 A3002 RMK A01 T02790196  RH  061%=      5-min Rain = 0
KMD1 142142Z 23004KT 28/19 A3002 RMK A01 T02790194  RH  060%=      5-min Rain = 0
KMD1 142143Z 24003KT 28/20 A3002 RMK A01 T02800196  RH  060%=      5-min Rain = 0
KMD1 142144Z 23002KT 28/20 A3002 RMK A01 T02800195  RH  060%=      5-min Rain = 0
KMD1 142145Z 23003KT 28/20 A3002 RMK A01 T02810196  RH  060%=      5-min Rain = 0
KMD1 142146Z 22002KT 28/20 A3002 RMK A01 T02820196  RH  060%=      5-min Rain = 0
KMD1 142147Z 20002KT 28/20 A3002 RMK A01 T02830196  RH  059%=      5-min Rain = 0
KMD1 142148Z 19002KT 28/20 A3002 RMK A01 T02830196  RH  059%=      5-min Rain = 0
KMD1 142149Z 16002KT 28/20 A3002 RMK A01 T02840196  RH  059%=      5-min Rain = 0
KMD1 142150Z 17002KT 28/20 A3002 RMK A01 T02840196  RH  059%=      5-min Rain = 0
KMD1 142151Z 18002KT 28/20 A3002 RMK A01 T02840196  RH  059%=      5-min Rain = 0
KMD1 142152Z 18002KT 29/20 A3002 RMK A01 T02850196  RH  059%=      5-min Rain = 0
KMD1 142153Z 19003KT 29/20 A3002 RMK A01 T02850196  RH  058%=      5-min Rain = 0
KMD1 142154Z 18003KT 29/20 A3002 RMK A01 T02860197  RH  059%=      5-min Rain = 0
KMD1 142155Z 17004KT 29/20 A3002 RMK A01 T02860195  RH  058%=      5-min Rain = 0
KMD1 142156Z 17003KT 29/20 A3002 RMK A01 T02860198  RH  059%=      5-min Rain = 0
KMD1 142157Z 18004KT 29/20 A3002 RMK A01 T02860198  RH  059%=      5-min Rain = 0
KMD1 142158Z 19004KT 29/20 A3002 RMK A01 T02870197  RH  058%=      5-min Rain = 0
KMD1 142159Z 19003KT 29/20 A3002 RMK A01 T02860197  RH  058%=      5-min Rain = 0
KMD1 142200Z 19002KT 29/20 A3002 RMK A01 T02860197  RH  059%=      5-min Rain = 0
KMD1 142201Z 18002KT 29/20 A3002 RMK A01 T02860199  RH  059%=      5-min Rain = 0
KMD1 142202Z 18002KT 29/20 A3002 RMK A01 T02860197  RH  059%=      5-min Rain = 0
KMD1 142203Z 18003KT 29/20 A3002 RMK A01 T02860196  RH  058%=      5-min Rain = 0
KMD1 142204Z 19004KT 29/20 A3002 RMK A01 T02860197  RH  058%=      5-min Rain = 0
KMD1 142205Z 20004KT 29/20 A3002 RMK A01 T02870197  RH  058%=      5-min Rain = 0
KMD1 142206Z 19004KT 29/20 A3002 RMK A01 T02860197  RH  058%=      5-min Rain = 0
KMD1 142207Z 19003KT 29/20 A3002 RMK A01 T02870200  RH  059%=      5-min Rain = 0
KMD1 142208Z 19003KT 29/20 A3002 RMK A01 T02860200  RH  060%=      5-min Rain = 0
KMD1 142209Z 19004KT 29/20 A3002 RMK A01 T02870200  RH  059%=      5-min Rain = 0
KMD1 142210Z 19004KT 29/20 A3002 RMK A01 T02880199  RH  059%=      5-min Rain = 0
KMD1 142211Z 18003KT 29/20 A3002 RMK A01 T02870199  RH  059%=      5-min Rain = 0
KMD1 142212Z 17003KT 29/20 A3002 RMK A01 T02880200  RH  059%=      5-min Rain = 0
KMD1 142213Z 17003KT 29/20 A3002 RMK A01 T02880200  RH  059%=      5-min Rain = 0
KMD1 142214Z 16004KT 29/20 A3001 RMK A01 T02880199  RH  059%=      5-min Rain = 0
KMD1 142215Z 16004KT 29/20 A3001 RMK A01 T02890200  RH  059%=      5-min Rain = 0
KMD1 142216Z 17004KT 29/20 A3001 RMK A01 T02880200  RH  059%=      5-min Rain = 0
KMD1 142217Z 15003KT 29/20 A3001 RMK A01 T02890201  RH  059%=      5-min Rain = 0
KMD1 142218Z 14004KT 29/20 A3001 RMK A01 T02890199  RH  058%=      5-min Rain = 0
KMD1 142219Z 16004KT 29/20 A3001 RMK A01 T02900198  RH  057%=      5-min Rain = 0
KMD1 142220Z 17004KT 29/20 A3001 RMK A01 T02900196  RH  057%=      5-min Rain = 0
KMD1 142221Z 17004KT 29/20 A3001 RMK A01 T02900197  RH  057%=      5-min Rain = 0
KMD1 142222Z 17004KT 29/20 A3001 RMK A01 T02900197  RH  057%=      5-min Rain = 0
KMD1 142223Z 18003KT 29/20 A3001 RMK A01 T02900199  RH  058%=      5-min Rain = 0
KMD1 142224Z 18004KT 29/20 A3001 RMK A01 T02900198  RH  058%=      5-min Rain = 0
KMD1 142225Z 18003KT 29/20 A3001 RMK A01 T02890199  RH  058%=      5-min Rain = 0
KMD1 142226Z 19003KT 29/20 A3001 RMK A01 T02890199  RH  058%=      5-min Rain = 0
KMD1 142227Z 18003KT 29/20 A3001 RMK A01 T02890198  RH  058%=      5-min Rain = 0
KMD1 142228Z 21003KT 29/20 A3002 RMK A01 T02890201  RH  059%=      5-min Rain = 0
KMD1 142229Z 21003KT 29/20 A3002 RMK A01 T02900203  RH  059%=      5-min Rain = 0
KMD1 142230Z 20004KT 29/20 A3002 RMK A01 T02900202  RH  059%=      5-min Rain = 0
KMD1 142231Z 22004KT 29/20 A3002 RMK A01 T02900202  RH  059%=      5-min Rain = 0
KMD1 142232Z 21004KT 29/20 A3002 RMK A01 T02900203  RH  059%=      5-min Rain = 0
KMD1 142233Z 19005KT 29/20 A3002 RMK A01 T02900200  RH  058%=      5-min Rain = 0
KMD1 142234Z 20003KT 29/20 A3002 RMK A01 T02900200  RH  059%=      5-min Rain = 0
KMD1 142235Z 20003KT 29/20 A3002 RMK A01 T02900200  RH  058%=      5-min Rain = 0
KMD1 142236Z 19003KT 29/20 A3002 RMK A01 T02900200  RH  059%=      5-min Rain = 0
KMD1 142237Z 21003KT 29/20 A3002 RMK A01 T02900200  RH  058%=      5-min Rain = 0
KMD1 142238Z 20005KT 29/20 A3002 RMK A01 T02910199  RH  058%=      5-min Rain = 0
KMD1 142239Z 21005KT 29/20 A3002 RMK A01 T02900198  RH  057%=      5-min Rain = 0
KMD1 142240Z 20004KT 29/20 A3002 RMK A01 T02910201  RH  058%=      5-min Rain = 0
KMD1 142241Z 20004KT 29/20 A3002 RMK A01 T02910199  RH  058%=      5-min Rain = 0
KMD1 142242Z 20004KT 29/20 A3002 RMK A01 T02910201  RH  058%=      5-min Rain = 0
KMD1 142243Z 20004KT 29/20 A3002 RMK A01 T02910201  RH  058%=      5-min Rain = 0
KMD1 142244Z 19005KT 29/20 A3002 RMK A01 T02910202  RH  059%=      5-min Rain = 0
KMD1 142245Z 19005KT 29/20 A3002 RMK A01 T02910202  RH  059%=      5-min Rain = 0
KMD1 142246Z 19006KT 29/20 A3002 RMK A01 T02900203  RH  059%=      5-min Rain = 0
KMD1 142247Z 19006KT 29/20 A3002 RMK A01 T02900203  RH  059%=      5-min Rain = 0
KMD1 142248Z 18006KT 29/20 A3002 RMK A01 T02900201  RH  059%=      5-min Rain = 0
KMD1 142249Z 19006KT 29/20 A3002 RMK A01 T02890202  RH  059%=      5-min Rain = 0
KMD1 142250Z 18006KT 29/20 A3002 RMK A01 T02880202  RH  060%=      5-min Rain = 0
KMD1 142251Z 19006KT 29/20 A3002 RMK A01 T02870203  RH  060%=      5-min Rain = 0
KMD1 142252Z 18007KT 29/20 A3002 RMK A01 T02870204  RH  061%=      5-min Rain = 0
KMD1 142253Z 18008KT 29/20 A3002 RMK A01 T02860204  RH  061%=      5-min Rain = 0
KMD1 142254Z 19006KT 29/20 A3002 RMK A01 T02860204  RH  061%=      5-min Rain = 0
KMD1 142255Z 18005KT 29/21 A3002 RMK A01 T02850205  RH  062%=      5-min Rain = 0
KMD1 142256Z 19005KT 29/21 A3002 RMK A01 T02850207  RH  062%=      5-min Rain = 0
KMD1 142257Z 19005KT 29/21 A3002 RMK A01 T02860207  RH  062%=      5-min Rain = 0
KMD1 142258Z 18006KT 29/21 A3002 RMK A01 T02860206  RH  062%=      5-min Rain = 0
KMD1 142259Z 19006KT 29/21 A3002 RMK A01 T02860207  RH  062%=      5-min Rain = 0
KMD1 142300Z 18007KT 29/21 A3002 RMK A01 T02850206  RH  062%=      5-min Rain = 0
KMD1 142301Z 19006KT 28/21 A3002 RMK A01 T02840207  RH  063%=      5-min Rain = 0
KMD1 142302Z 19006KT 29/21 A3002 RMK A01 T02850207  RH  063%=      5-min Rain = 0
KMD1 142303Z 19005KT 28/21 A3002 RMK A01 T02840207  RH  063%=      5-min Rain = 0
KMD1 142304Z 19006KT 29/21 A3002 RMK A01 T02850207  RH  063%=      5-min Rain = 0
KMD1 142305Z 19004KT 29/21 A3002 RMK A01 T02850207  RH  063%=      5-min Rain = 0
KMD1 142306Z 20005KT 29/21 A3002 RMK A01 T02850207  RH  063%=      5-min Rain = 0
KMD1 142307Z 20006KT 29/21 A3002 RMK A01 T02850206  RH  062%=      5-min Rain = 0
KMD1 142308Z 21005KT 29/21 A3002 RMK A01 T02850205  RH  062%=      5-min Rain = 0
KMD1 142309Z 20005KT 29/21 A3002 RMK A01 T02850206  RH  062%=      5-min Rain = 0
KMD1 142310Z 21004KT 29/21 A3002 RMK A01 T02850205  RH  062%=      5-min Rain = 0
KMD1 142311Z 21004KT 29/21 A3002 RMK A01 T02850206  RH  062%=      5-min Rain = 0
KMD1 142312Z 21005KT 29/20 A3002 RMK A01 T02850204  RH  061%=      5-min Rain = 0
KMD1 142313Z 21004KT 29/20 A3002 RMK A01 T02860204  RH  061%=      5-min Rain = 0
KMD1 142314Z 21004KT 29/21 A3002 RMK A01 T02860205  RH  062%=      5-min Rain = 0
KMD1 142315Z 21004KT 29/20 A3002 RMK A01 T02860204  RH  061%=      5-min Rain = 0
KMD1 142316Z 21005KT 29/20 A3002 RMK A01 T02860204  RH  061%=      5-min Rain = 0
KMD1 142317Z 20004KT 29/20 A3002 RMK A01 T02860204  RH  061%=      5-min Rain = 0
KMD1 142318Z 20004KT 29/21 A3002 RMK A01 T02860205  RH  061%=      5-min Rain = 0
KMD1 142319Z 21003KT 29/20 A3002 RMK A01 T02870204  RH  061%=      5-min Rain = 0
KMD1 142320Z 22003KT 29/20 A3002 RMK A01 T02870202  RH  060%=      5-min Rain = 0
KMD1 142321Z 21004KT 29/20 A3002 RMK A01 T02870197  RH  058%=      5-min Rain = 0
KMD1 142322Z 21003KT 29/20 A3002 RMK A01 T02880200  RH  059%=      5-min Rain = 0
KMD1 142323Z 21003KT 29/20 A3002 RMK A01 T02880200  RH  059%=      5-min Rain = 0
KMD1 142324Z 19004KT 29/20 A3002 RMK A01 T02880201  RH  059%=      5-min Rain = 0
KMD1 142325Z 20004KT 29/20 A3002 RMK A01 T02880200  RH  059%=      5-min Rain = 0
KMD1 142326Z 19003KT 29/20 A3002 RMK A01 T02880200  RH  059%=      5-min Rain = 0
KMD1 142327Z 20004KT 29/20 A3002 RMK A01 T02870200  RH  059%=      5-min Rain = 0
KMD1 142328Z 19003KT 29/20 A3002 RMK A01 T02860199  RH  059%=      5-min Rain = 0
KMD1 142329Z 19004KT 29/20 A3002 RMK A01 T02860199  RH  059%=      5-min Rain = 0
KMD1 142330Z 19005KT 29/20 A3002 RMK A01 T02860198  RH  059%=      5-min Rain = 0
KMD1 142331Z 20004KT 29/20 A3002 RMK A01 T02860198  RH  059%=      5-min Rain = 0
KMD1 142332Z 19003KT 29/20 A3002 RMK A01 T02860199  RH  059%=      5-min Rain = 0
KMD1 142333Z 18004KT 29/20 A3002 RMK A01 T02860199  RH  059%=      5-min Rain = 0
KMD1 142334Z 19004KT 29/20 A3002 RMK A01 T02860199  RH  059%=      5-min Rain = 0
KMD1 142335Z 19004KT 29/20 A3002 RMK A01 T02850200  RH  060%=      5-min Rain = 0
KMD1 142336Z 21003KT 29/20 A3002 RMK A01 T02850201  RH  060%=      5-min Rain = 0
KMD1 142337Z 20003KT 29/20 A3002 RMK A01 T02850201  RH  060%=      5-min Rain = 0
KMD1 142338Z 22003KT 29/20 A3002 RMK A01 T02850201  RH  060%=      5-min Rain = 0
KMD1 142339Z 21003KT 29/20 A3002 RMK A01 T02850201  RH  060%=      5-min Rain = 0
KMD1 142340Z 22004KT 28/20 A3002 RMK A01 T02840201  RH  060%=      5-min Rain = 0
KMD1 142341Z 20003KT 28/20 A3002 RMK A01 T02840200  RH  060%=      5-min Rain = 0
KMD1 142342Z 22003KT 28/20 A3002 RMK A01 T02840201  RH  061%=      5-min Rain = 0
KMD1 142343Z 22003KT 28/20 A3002 RMK A01 T02840201  RH  061%=      5-min Rain = 0
KMD1 142344Z 23004KT 28/20 A3002 RMK A01 T02840201  RH  061%=      5-min Rain = 0
KMD1 142345Z 22006KT 29/20 A3002 RMK A01 T02850198  RH  059%=      5-min Rain = 0
KMD1 142346Z 21005KT 29/20 A3002 RMK A01 T02850197  RH  059%=      5-min Rain = 0
KMD1 142347Z 22005KT 29/20 A3002 RMK A01 T02850197  RH  059%=      5-min Rain = 0
KMD1 142348Z 22004KT 29/20 A3002 RMK A01 T02850197  RH  059%=      5-min Rain = 0
KMD1 142349Z 21005KT 29/20 A3002 RMK A01 T02850197  RH  059%=      5-min Rain = 0
KMD1 142350Z 21004KT 28/20 A3002 RMK A01 T02840196  RH  059%=      5-min Rain = 0
KMD1 142351Z 21004KT 28/20 A3002 RMK A01 T02840197  RH  059%=      5-min Rain = 0
KMD1 142352Z 22004KT 28/20 A3002 RMK A01 T02840197  RH  060%=      5-min Rain = 0
KMD1 142353Z 22003KT 28/20 A3002 RMK A01 T02840198  RH  060%=      5-min Rain = 0
KMD1 142354Z 23003KT 28/20 A3002 RMK A01 T02840198  RH  060%=      5-min Rain = 0
KMD1 142355Z 23003KT 28/20 A3002 RMK A01 T02840198  RH  060%=      5-min Rain = 0
KMD1 142356Z 24002KT 28/20 A3002 RMK A01 T02840198  RH  060%=      5-min Rain = 0
KMD1 142357Z 24002KT 28/20 A3002 RMK A01 T02840199  RH  060%=      5-min Rain = 0
KMD1 142358Z 25003KT 28/20 A3002 RMK A01 T02840196  RH  059%=      5-min Rain = 0
KMD1 142359Z 24004KT 28/20 A3002 RMK A01 T02840196  RH  059%=      5-min Rain = 0
KMD1 150000Z 24002KT 29/20 A3002 RMK A01 T02850195  RH  058%=      5-min Rain = 0
KMD1 150001Z 22003KT 29/20 A3002 RMK A01 T02850195  RH  058%=      5-min Rain = 0
KMD1 150002Z 23005KT 29/19 A3002 RMK A01 T02850194  RH  058%=      5-min Rain = 0
KMD1 150003Z 22004KT 29/19 A3002 RMK A01 T02850193  RH  057%=      5-min Rain = 0
KMD1 150004Z 22003KT 29/19 A3002 RMK A01 T02850194  RH  058%=      5-min Rain = 0
KMD1 150005Z 22003KT 29/19 A3002 RMK A01 T02850194  RH  058%=      5-min Rain = 0
KMD1 150006Z 21003KT 29/19 A3002 RMK A01 T02850194  RH  058%=      5-min Rain = 0
KMD1 150007Z 21004KT 29/20 A3002 RMK A01 T02850195  RH  058%=      5-min Rain = 0
KMD1 150008Z 20005KT 29/20 A3002 RMK A01 T02850195  RH  058%=      5-min Rain = 0
KMD1 150009Z 20005KT 29/19 A3002 RMK A01 T02850194  RH  058%=      5-min Rain = 0
KMD1 150010Z 19004KT 29/20 A3002 RMK A01 T02850195  RH  058%=      5-min Rain = 0
KMD1 150011Z 18003KT 28/20 A3002 RMK A01 T02840197  RH  059%=      5-min Rain = 0
KMD1 150012Z 18003KT 28/20 A3002 RMK A01 T02840197  RH  059%=      5-min Rain = 0
KMD1 150013Z 17004KT 28/20 A3002 RMK A01 T02840195  RH  058%=      5-min Rain = 0
KMD1 150014Z 18005KT 28/19 A3002 RMK A01 T02840194  RH  058%=      5-min Rain = 0
KMD1 150015Z 18004KT 28/19 A3002 RMK A01 T02840194  RH  058%=      5-min Rain = 0
KMD1 150016Z 19004KT 28/19 A3002 RMK A01 T02830194  RH  058%=      5-min Rain = 0
KMD1 150017Z 19005KT 28/20 A3002 RMK A01 T02830195  RH  059%=      5-min Rain = 0
KMD1 150018Z 19004KT 28/20 A3001 RMK A01 T02830196  RH  059%=      5-min Rain = 0
KMD1 150019Z 19004KT 28/20 A3001 RMK A01 T02820196  RH  059%=      5-min Rain = 0
KMD1 150020Z 19004KT 28/20 A3001 RMK A01 T02820195  RH  059%=      5-min Rain = 0
KMD1 150021Z 19004KT 28/20 A3001 RMK A01 T02810195  RH  059%=      5-min Rain = 0
KMD1 150022Z 19004KT 28/20 A3001 RMK A01 T02810195  RH  059%=      5-min Rain = 0
KMD1 150023Z 19004KT 28/19 A3001 RMK A01 T02810194  RH  059%=      5-min Rain = 0
KMD1 150024Z 20004KT 28/19 A3001 RMK A01 T02800194  RH  059%=      5-min Rain = 0
KMD1 150025Z 20004KT 28/19 A3001 RMK A01 T02800194  RH  060%=      5-min Rain = 0
KMD1 150026Z 20004KT 28/19 A3001 RMK A01 T02800194  RH  059%=      5-min Rain = 0
KMD1 150027Z 20004KT 28/19 A3001 RMK A01 T02800194  RH  060%=      5-min Rain = 0
KMD1 150028Z 19005KT 28/19 A3001 RMK A01 T02790192  RH  059%=      5-min Rain = 0
KMD1 150029Z 20004KT 28/19 A3001 RMK A01 T02790193  RH  059%=      5-min Rain = 0
KMD1 150030Z 20003KT 28/19 A3001 RMK A01 T02790194  RH  060%=      5-min Rain = 0
KMD1 150031Z 20002KT 28/20 A3001 RMK A01 T02790195  RH  060%=      5-min Rain = 0
KMD1 150032Z 19003KT 28/20 A3001 RMK A01 T02790195  RH  060%=      5-min Rain = 0
KMD1 150033Z 19003KT 28/19 A3001 RMK A01 T02790194  RH  060%=      5-min Rain = 0
KMD1 150034Z 19002KT 28/19 A3001 RMK A01 T02780194  RH  060%=      5-min Rain = 0
KMD1 150035Z 20002KT 28/19 A3001 RMK A01 T02780194  RH  060%=      5-min Rain = 0
KMD1 150036Z 20004KT 28/19 A3001 RMK A01 T02780192  RH  060%=      5-min Rain = 0
KMD1 150037Z 21004KT 28/19 A3001 RMK A01 T02780190  RH  059%=      5-min Rain = 0
KMD1 150038Z 21005KT 28/19 A3001 RMK A01 T02780190  RH  059%=      5-min Rain = 0
KMD1 150039Z 21005KT 28/19 A3001 RMK A01 T02780189  RH  059%=      5-min Rain = 0
KMD1 150040Z 21004KT 28/19 A3001 RMK A01 T02770189  RH  059%=      5-min Rain = 0
KMD1 150041Z 21005KT 28/19 A3001 RMK A01 T02770190  RH  059%=      5-min Rain = 0
KMD1 150042Z 21005KT 28/19 A3001 RMK A01 T02770190  RH  059%=      5-min Rain = 0
KMD1 150043Z 21004KT 28/19 A3001 RMK A01 T02770190  RH  059%=      5-min Rain = 0
KMD1 150044Z 21004KT 28/19 A3001 RMK A01 T02760190  RH  059%=      5-min Rain = 0
KMD1 150045Z 21004KT 28/19 A3001 RMK A01 T02760190  RH  060%=      5-min Rain = 0
KMD1 150046Z 21003KT 28/19 A3001 RMK A01 T02760190  RH  060%=      5-min Rain = 0
KMD1 150047Z 21002KT 28/19 A3001 RMK A01 T02760190  RH  060%=      5-min Rain = 0
KMD1 150048Z 21003KT 28/19 A3001 RMK A01 T02750191  RH  060%=      5-min Rain = 0
KMD1 150049Z 20004KT 28/19 A3001 RMK A01 T02750192  RH  060%=      5-min Rain = 0
KMD1 150050Z 19003KT 28/19 A3001 RMK A01 T02750191  RH  060%=      5-min Rain = 0
KMD1 150051Z 18004KT 28/19 A3001 RMK A01 T02750191  RH  060%=      5-min Rain = 0
KMD1 150052Z 19005KT 27/19 A3001 RMK A01 T02740191  RH  060%=      5-min Rain = 0
KMD1 150053Z 19005KT 27/19 A3001 RMK A01 T02740190  RH  060%=      5-min Rain = 0
KMD1 150054Z 19005KT 27/19 A3001 RMK A01 T02730189  RH  060%=      5-min Rain = 0
KMD1 150055Z 20005KT 27/19 A3001 RMK A01 T02740189  RH  060%=      5-min Rain = 0
KMD1 150056Z 19005KT 27/19 A3001 RMK A01 T02740189  RH  060%=      5-min Rain = 0
KMD1 150057Z 19005KT 27/19 A3001 RMK A01 T02730188  RH  060%=      5-min Rain = 0
KMD1 150058Z 19005KT 27/19 A3001 RMK A01 T02730188  RH  060%=      5-min Rain = 0
KMD1 150059Z 21005KT 27/19 A3001 RMK A01 T02730189  RH  060%=      5-min Rain = 0
KMD1 150100Z 20005KT 27/19 A3001 RMK A01 T02730189  RH  060%=      5-min Rain = 0
KMD1 150101Z 20005KT 27/19 A3001 RMK A01 T02720188  RH  060%=      5-min Rain = 0
KMD1 150102Z 21005KT 27/19 A3001 RMK A01 T02720188  RH  060%=      5-min Rain = 0
KMD1 150103Z 20003KT 27/19 A3001 RMK A01 T02710188  RH  060%=      5-min Rain = 0
KMD1 150104Z 21003KT 27/19 A3001 RMK A01 T02710188  RH  060%=      5-min Rain = 0
KMD1 150105Z 21004KT 27/19 A3001 RMK A01 T02710188  RH  061%=      5-min Rain = 0
KMD1 150106Z 21004KT 27/19 A3001 RMK A01 T02700188  RH  061%=      5-min Rain = 0
KMD1 150107Z 20004KT 27/19 A3001 RMK A01 T02700187  RH  061%=      5-min Rain = 0
KMD1 150108Z 20003KT 27/19 A3001 RMK A01 T02700187  RH  061%=      5-min Rain = 0
KMD1 150109Z 21002KT 27/19 A3001 RMK A01 T02690187  RH  061%=      5-min Rain = 0
KMD1 150110Z 20004KT 27/19 A3002 RMK A01 T02690187  RH  061%=      5-min Rain = 0
KMD1 150111Z 19003KT 27/19 A3002 RMK A01 T02690187  RH  061%=      5-min Rain = 0
KMD1 150112Z 21003KT 27/19 A3002 RMK A01 T02690188  RH  061%=      5-min Rain = 0
KMD1 150113Z 21002KT 27/19 A3002 RMK A01 T02690188  RH  061%=      5-min Rain = 0
KMD1 150114Z 21002KT 27/19 A3002 RMK A01 T02680188  RH  061%=      5-min Rain = 0
KMD1 150115Z 20005KT 27/19 A3002 RMK A01 T02680187  RH  061%=      5-min Rain = 0
KMD1 150116Z 22003KT 27/19 A3002 RMK A01 T02680187  RH  061%=      5-min Rain = 0
KMD1 150117Z 20002KT 27/19 A3002 RMK A01 T02670187  RH  062%=      5-min Rain = 0
KMD1 150118Z 20002KT 27/19 A3002 RMK A01 T02670187  RH  062%=      5-min Rain = 0
KMD1 150119Z 21002KT 27/19 A3002 RMK A01 T02670187  RH  062%=      5-min Rain = 0
KMD1 150120Z 19004KT 27/19 A3002 RMK A01 T02660188  RH  062%=      5-min Rain = 0
KMD1 150121Z 19004KT 27/19 A3002 RMK A01 T02660188  RH  062%=      5-min Rain = 0
KMD1 150122Z 19002KT 27/19 A3002 RMK A01 T02660188  RH  062%=      5-min Rain = 0
KMD1 150123Z 18001KT 27/19 A3002 RMK A01 T02660188  RH  062%=      5-min Rain = 0
KMD1 150124Z 18002KT 27/19 A3002 RMK A01 T02650188  RH  063%=      5-min Rain = 0
KMD1 150125Z 18003KT 27/19 A3002 RMK A01 T02650188  RH  063%=      5-min Rain = 0
KMD1 150126Z 19002KT 26/19 A3002 RMK A01 T02640188  RH  063%=      5-min Rain = 0
KMD1 150127Z 18003KT 26/19 A3002 RMK A01 T02640188  RH  063%=      5-min Rain = 0
KMD1 150128Z 17002KT 26/19 A3002 RMK A01 T02640189  RH  063%=      5-min Rain = 0
KMD1 150129Z 18003KT 26/19 A3002 RMK A01 T02630188  RH  063%=      5-min Rain = 0
KMD1 150130Z 16002KT 26/19 A3002 RMK A01 T02630189  RH  064%=      5-min Rain = 0
KMD1 150131Z 15002KT 26/19 A3002 RMK A01 T02630189  RH  064%=      5-min Rain = 0
KMD1 150132Z 17002KT 26/19 A3002 RMK A01 T02620189  RH  064%=      5-min Rain = 0
KMD1 150133Z 17002KT 26/19 A3002 RMK A01 T02620189  RH  064%=      5-min Rain = 0
KMD1 150134Z 17003KT 26/19 A3002 RMK A01 T02620190  RH  064%=      5-min Rain = 0
KMD1 150135Z 16002KT 26/19 A3002 RMK A01 T02620190  RH  065%=      5-min Rain = 0
KMD1 150136Z 16002KT 26/19 A3002 RMK A01 T02620190  RH  064%=      5-min Rain = 0
KMD1 150137Z 16001KT 26/19 A3002 RMK A01 T02620190  RH  065%=      5-min Rain = 0
KMD1 150138Z 17002KT 26/19 A3002 RMK A01 T02620189  RH  064%=      5-min Rain = 0
KMD1 150139Z 18001KT 26/19 A3002 RMK A01 T02610190  RH  065%=      5-min Rain = 0
KMD1 150140Z 16001KT 26/19 A3002 RMK A01 T02620190  RH  065%=      5-min Rain = 0
KMD1 150141Z 17002KT 26/19 A3002 RMK A01 T02620190  RH  065%=      5-min Rain = 0
KMD1 150142Z 17001KT 26/19 A3003 RMK A01 T02620190  RH  065%=      5-min Rain = 0
KMD1 150143Z 17002KT 26/19 A3003 RMK A01 T02610190  RH  065%=      5-min Rain = 0
KMD1 150144Z 23001KT 26/19 A3003 RMK A01 T02610190  RH  065%=      5-min Rain = 0
KMD1 150145Z 17000KT 26/19 A3003 RMK A01 T02610190  RH  065%=      5-min Rain = 0
KMD1 150146Z 21001KT 26/19 A3003 RMK A01 T02610190  RH  065%=      5-min Rain = 0
KMD1 150147Z 20001KT 26/19 A3003 RMK A01 T02610190  RH  065%=      5-min Rain = 0
KMD1 150148Z 25001KT 26/19 A3003 RMK A01 T02610191  RH  065%=      5-min Rain = 0
KMD1 150149Z 20001KT 26/19 A3003 RMK A01 T02610190  RH  065%=      5-min Rain = 0
KMD1 150150Z 22001KT 26/19 A3003 RMK A01 T02600191  RH  065%=      5-min Rain = 0
KMD1 150151Z 25001KT 26/19 A3003 RMK A01 T02600191  RH  065%=      5-min Rain = 0
KMD1 150152Z 23001KT 26/19 A3003 RMK A01 T02600191  RH  066%=      5-min Rain = 0
KMD1 150153Z 26001KT 26/19 A3003 RMK A01 T02600191  RH  066%=      5-min Rain = 0
KMD1 150154Z 26001KT 26/19 A3003 RMK A01 T02600190  RH  066%=      5-min Rain = 0
KMD1 150155Z 24001KT 26/19 A3003 RMK A01 T02590190  RH  066%=      5-min Rain = 0
KMD1 150156Z 23001KT 26/19 A3003 RMK A01 T02590190  RH  066%=      5-min Rain = 0
KMD1 150157Z 24001KT 26/19 A3003 RMK A01 T02590191  RH  066%=      5-min Rain = 0
KMD1 150158Z 22001KT 26/19 A3003 RMK A01 T02590191  RH  066%=      5-min Rain = 0
KMD1 150159Z 22001KT 26/19 A3003 RMK A01 T02590191  RH  066%=      5-min Rain = 0
KMD1 150200Z 22001KT 26/19 A3003 RMK A01 T02580191  RH  066%=      5-min Rain = 0
KMD1 150201Z 22001KT 26/19 A3003 RMK A01 T02590191  RH  066%=      5-min Rain = 0
KMD1 150202Z 22002KT 26/19 A3003 RMK A01 T02580190  RH  066%=      5-min Rain = 0
KMD1 150203Z 24002KT 26/19 A3003 RMK A01 T02580190  RH  066%=      5-min Rain = 0
KMD1 150204Z 24002KT 26/19 A3003 RMK A01 T02590190  RH  066%=      5-min Rain = 0
KMD1 150205Z 24002KT 26/19 A3003 RMK A01 T02580190  RH  066%=      5-min Rain = 0
KMD1 150206Z 23002KT 26/19 A3003 RMK A01 T02580190  RH  066%=      5-min Rain = 0
KMD1 150207Z 24002KT 26/19 A3003 RMK A01 T02570190  RH  066%=      5-min Rain = 0
KMD1 150208Z 23003KT 26/19 A3003 RMK A01 T02580190  RH  066%=      5-min Rain = 0
KMD1 150209Z 24002KT 26/19 A3004 RMK A01 T02580190  RH  066%=      5-min Rain = 0
KMD1 150210Z 24002KT 26/19 A3004 RMK A01 T02580190  RH  066%=      5-min Rain = 0
KMD1 150211Z 24003KT 26/19 A3004 RMK A01 T02580190  RH  066%=      5-min Rain = 0
KMD1 150212Z 25002KT 26/19 A3004 RMK A01 T02580190  RH  066%=      5-min Rain = 0
KMD1 150213Z 25002KT 26/19 A3004 RMK A01 T02580190  RH  066%=      5-min Rain = 0
KMD1 150214Z 26003KT 26/19 A3004 RMK A01 T02580190  RH  066%=      5-min Rain = 0
KMD1 150215Z 27002KT 26/19 A3004 RMK A01 T02580190  RH  066%=      5-min Rain = 0
KMD1 150216Z 27002KT 26/19 A3004 RMK A01 T02580190  RH  066%=      5-min Rain = 0
KMD1 150217Z 30002KT 26/19 A3004 RMK A01 T02580190  RH  066%=      5-min Rain = 0
KMD1 150218Z 30002KT 26/19 A3004 RMK A01 T02570190  RH  066%=      5-min Rain = 0
KMD1 150219Z 30002KT 26/19 A3004 RMK A01 T02560189  RH  067%=      5-min Rain = 0
KMD1 150220Z 30002KT 26/19 A3004 RMK A01 T02560190  RH  067%=      5-min Rain = 0
KMD1 150221Z 29002KT 26/19 A3004 RMK A01 T02550190  RH  067%=      5-min Rain = 0
KMD1 150222Z 28002KT 26/19 A3004 RMK A01 T02550190  RH  067%=      5-min Rain = 0
KMD1 150223Z 28001KT 26/19 A3004 RMK A01 T02550189  RH  067%=      5-min Rain = 0
KMD1 150224Z 27001KT 26/19 A3004 RMK A01 T02550189  RH  067%=      5-min Rain = 0
KMD1 150225Z 26001KT 26/19 A3004 RMK A01 T02550190  RH  067%=      5-min Rain = 0
KMD1 150226Z 24001KT 26/19 A3004 RMK A01 T02550190  RH  067%=      5-min Rain = 0
KMD1 150227Z 24001KT 26/19 A3004 RMK A01 T02550190  RH  067%=      5-min Rain = 0
KMD1 150228Z 24001KT 26/19 A3005 RMK A01 T02550190  RH  067%=      5-min Rain = 0
KMD1 150229Z 25001KT 25/19 A3005 RMK A01 T02540189  RH  067%=      5-min Rain = 0
KMD1 150230Z 27002KT 25/19 A3005 RMK A01 T02540189  RH  067%=      5-min Rain = 0
KMD1 150231Z 28003KT 25/19 A3005 RMK A01 T02540189  RH  067%=      5-min Rain = 0
KMD1 150232Z 28003KT 25/19 A3005 RMK A01 T02540189  RH  067%=      5-min Rain = 0
KMD1 150233Z 27003KT 25/19 A3005 RMK A01 T02540189  RH  067%=      5-min Rain = 0
KMD1 150234Z 27003KT 25/19 A3005 RMK A01 T02540189  RH  067%=      5-min Rain = 0
KMD1 150235Z 27003KT 25/19 A3005 RMK A01 T02540189  RH  067%=      5-min Rain = 0
KMD1 150236Z 27002KT 25/19 A3005 RMK A01 T02530189  RH  067%=      5-min Rain = 0
KMD1 150237Z 27001KT 25/19 A3005 RMK A01 T02530189  RH  067%=      5-min Rain = 0
KMD1 150238Z 27001KT 25/19 A3005 RMK A01 T02530189  RH  067%=      5-min Rain = 0
KMD1 150239Z 26001KT 25/19 A3005 RMK A01 T02530188  RH  068%=      5-min Rain = 0
KMD1 150240Z 26001KT 25/19 A3005 RMK A01 T02520189  RH  068%=      5-min Rain = 0
KMD1 150241Z 26001KT 25/19 A3005 RMK A01 T02520189  RH  068%=      5-min Rain = 0
KMD1 150242Z 26000KT 25/19 A3005 RMK A01 T02520189  RH  068%=      5-min Rain = 0
KMD1 150243Z 00000KT 25/19 A3005 RMK A01 T02520189  RH  068%=      5-min Rain = 0
KMD1 150244Z 00000KT 25/19 A3005 RMK A01 T02510189  RH  068%=      5-min Rain = 0
KMD1 150245Z 00000KT 25/19 A3006 RMK A01 T02510190  RH  069%=      5-min Rain = 0
KMD1 150246Z 30000KT 25/19 A3006 RMK A01 T02490190  RH  069%=      5-min Rain = 0
KMD1 150247Z 29001KT 25/19 A3006 RMK A01 T02490191  RH  070%=      5-min Rain = 0
KMD1 150248Z 28002KT 25/19 A3006 RMK A01 T02480191  RH  071%=      5-min Rain = 0
KMD1 150249Z 29002KT 25/19 A3006 RMK A01 T02480191  RH  070%=      5-min Rain = 0
KMD1 150250Z 33001KT 25/19 A3005 RMK A01 T02470190  RH  070%=      5-min Rain = 0
KMD1 150251Z 00000KT 25/19 A3005 RMK A01 T02470189  RH  070%=      5-min Rain = 0
KMD1 150252Z 00000KT 25/19 A3005 RMK A01 T02470190  RH  070%=      5-min Rain = 0
KMD1 150253Z 03000KT 25/19 A3005 RMK A01 T02470190  RH  071%=      5-min Rain = 0
KMD1 150254Z 00000KT 25/19 A3005 RMK A01 T02470191  RH  071%=      5-min Rain = 0
KMD1 150255Z 29001KT 25/19 A3006 RMK A01 T02470191  RH  071%=      5-min Rain = 0
KMD1 150256Z 27001KT 25/19 A3006 RMK A01 T02480191  RH  071%=      5-min Rain = 0
KMD1 150257Z 26002KT 25/19 A3006 RMK A01 T02480191  RH  070%=      5-min Rain = 0
KMD1 150258Z 26003KT 25/19 A3006 RMK A01 T02480191  RH  070%=      5-min Rain = 0
KMD1 150259Z 25003KT 25/19 A3006 RMK A01 T02480190  RH  070%=      5-min Rain = 0
KMD1 150300Z 26003KT 25/19 A3006 RMK A01 T02480190  RH  070%=      5-min Rain = 0
KMD1 150301Z 26002KT 25/19 A3006 RMK A01 T02470190  RH  071%=      5-min Rain = 0
KMD1 150302Z 27002KT 25/19 A3006 RMK A01 T02470190  RH  071%=      5-min Rain = 0
KMD1 150303Z 27001KT 25/19 A3006 RMK A01 T02460189  RH  070%=      5-min Rain = 0
KMD1 150304Z 27002KT 25/19 A3006 RMK A01 T02470190  RH  071%=      5-min Rain = 0
KMD1 150305Z 27002KT 25/19 A3006 RMK A01 T02470190  RH  071%=      5-min Rain = 0
KMD1 150306Z 28002KT 25/19 A3007 RMK A01 T02460190  RH  071%=      5-min Rain = 0
KMD1 150307Z 28002KT 25/19 A3007 RMK A01 T02460190  RH  071%=      5-min Rain = 0
KMD1 150308Z 28003KT 24/19 A3007 RMK A01 T02440189  RH  071%=      5-min Rain = 0
KMD1 150309Z 29002KT 24/19 A3007 RMK A01 T02430189  RH  072%=      5-min Rain = 0
KMD1 150310Z 29002KT 24/19 A3007 RMK A01 T02430189  RH  072%=      5-min Rain = 0
KMD1 150311Z 32001KT 24/19 A3007 RMK A01 T02430188  RH  072%=      5-min Rain = 0
KMD1 150312Z 36001KT 24/19 A3007 RMK A01 T02440188  RH  071%=      5-min Rain = 0
KMD1 150313Z 05001KT 24/19 A3007 RMK A01 T02440189  RH  071%=      5-min Rain = 0
KMD1 150314Z 09001KT 24/19 A3007 RMK A01 T02440191  RH  072%=      5-min Rain = 0
KMD1 150315Z 00000KT 24/19 A3007 RMK A01 T02440191  RH  072%=      5-min Rain = 0
KMD1 150316Z 00000KT 24/19 A3007 RMK A01 T02430189  RH  072%=      5-min Rain = 0
KMD1 150317Z 00000KT 24/19 A3007 RMK A01 T02420189  RH  072%=      5-min Rain = 0
KMD1 150318Z 00000KT 24/19 A3007 RMK A01 T02400189  RH  073%=      5-min Rain = 0
KMD1 150319Z 00000KT 24/19 A3007 RMK A01 T02390189  RH  074%=      5-min Rain = 0
KMD1 150320Z 00000KT 24/19 A3007 RMK A01 T02390189  RH  074%=      5-min Rain = 0
KMD1 150321Z 00000KT 24/19 A3007 RMK A01 T02390189  RH  073%=      5-min Rain = 0
KMD1 150322Z 00000KT 24/19 A3007 RMK A01 T02400189  RH  073%=      5-min Rain = 0
KMD1 150323Z 00000KT 24/19 A3007 RMK A01 T02390188  RH  073%=      5-min Rain = 0
KMD1 150324Z 04001KT 24/19 A3007 RMK A01 T02390189  RH  073%=      5-min Rain = 0
KMD1 150325Z 03001KT 24/19 A3007 RMK A01 T02390189  RH  074%=      5-min Rain = 0
KMD1 150326Z 04000KT 24/19 A3007 RMK A01 T02390190  RH  074%=      5-min Rain = 0
KMD1 150327Z 00000KT 24/19 A3008 RMK A01 T02390190  RH  074%=      5-min Rain = 0
KMD1 150328Z 00000KT 24/19 A3008 RMK A01 T02390190  RH  074%=      5-min Rain = 0
KMD1 150329Z 00000KT 24/19 A3008 RMK A01 T02390189  RH  074%=      5-min Rain = 0
KMD1 150330Z 00000KT 24/19 A3008 RMK A01 T02390190  RH  074%=      5-min Rain = 0
KMD1 150331Z 00000KT 24/19 A3008 RMK A01 T02400189  RH  073%=      5-min Rain = 0
KMD1 150332Z 00000KT 24/19 A3008 RMK A01 T02400189  RH  073%=      5-min Rain = 0
KMD1 150333Z 00000KT 24/19 A3008 RMK A01 T02390189  RH  073%=      5-min Rain = 0
KMD1 150334Z 00000KT 24/19 A3008 RMK A01 T02400190  RH  074%=      5-min Rain = 0
KMD1 150335Z 01001KT 24/19 A3008 RMK A01 T02390190  RH  074%=      5-min Rain = 0
KMD1 150336Z 01002KT 24/19 A3008 RMK A01 T02400191  RH  074%=      5-min Rain = 0
KMD1 150337Z 01002KT 24/19 A3008 RMK A01 T02410191  RH  074%=      5-min Rain = 0
KMD1 150338Z 02002KT 24/19 A3008 RMK A01 T02410190  RH  073%=      5-min Rain = 0
KMD1 150339Z 02001KT 24/19 A3008 RMK A01 T02410190  RH  073%=      5-min Rain = 0
KMD1 150340Z 01001KT 24/19 A3008 RMK A01 T02400191  RH  074%=      5-min Rain = 0
KMD1 150341Z 02002KT 24/19 A3008 RMK A01 T02400191  RH  074%=      5-min Rain = 0
KMD1 150342Z 02002KT 24/19 A3008 RMK A01 T02400191  RH  074%=      5-min Rain = 0
KMD1 150343Z 01002KT 24/19 A3008 RMK A01 T02390191  RH  074%=      5-min Rain = 0
KMD1 150344Z 00002KT 24/19 A3008 RMK A01 T02390191  RH  074%=      5-min Rain = 0
KMD1 150345Z 01003KT 24/19 A3008 RMK A01 T02380191  RH  075%=      5-min Rain = 0
KMD1 150346Z 03003KT 24/19 A3008 RMK A01 T02380191  RH  075%=      5-min Rain = 0
KMD1 150347Z 04003KT 24/19 A3009 RMK A01 T02380191  RH  075%=      5-min Rain = 0
KMD1 150348Z 04003KT 24/19 A3009 RMK A01 T02370191  RH  075%=      5-min Rain = 0
KMD1 150349Z 05003KT 24/19 A3009 RMK A01 T02360191  RH  076%=      5-min Rain = 0
KMD1 150350Z 05003KT 24/19 A3009 RMK A01 T02360192  RH  076%=      5-min Rain = 0
KMD1 150351Z 05003KT 24/19 A3009 RMK A01 T02360193  RH  077%=      5-min Rain = 0
KMD1 150352Z 06002KT 24/19 A3009 RMK A01 T02350193  RH  077%=      5-min Rain = 0
KMD1 150353Z 06002KT 23/19 A3009 RMK A01 T02340193  RH  077%=      5-min Rain = 0
KMD1 150354Z 07002KT 23/19 A3009 RMK A01 T02340193  RH  078%=      5-min Rain = 0
KMD1 150355Z 06002KT 23/19 A3009 RMK A01 T02340193  RH  078%=      5-min Rain = 0
KMD1 150356Z 06001KT 23/19 A3009 RMK A01 T02330193  RH  078%=      5-min Rain = 0
KMD1 150357Z 07002KT 23/19 A3009 RMK A01 T02330193  RH  078%=      5-min Rain = 0
KMD1 150358Z 07002KT 23/19 A3009 RMK A01 T02330193  RH  078%=      5-min Rain = 0
KMD1 150359Z 08002KT 23/19 A3009 RMK A01 T02330191  RH  078%=      5-min Rain = 0
KMD1 150400Z 08003KT 23/19 A301 RMK A01 T02330191  RH  077%=      5-min Rain = 0
KMD1 150401Z 09004KT 23/19 A301 RMK A01 T02330189  RH  076%=      5-min Rain = 0
KMD1 150402Z 08005KT 23/19 A301 RMK A01 T02330189  RH  076%=      5-min Rain = 0
KMD1 150403Z 08005KT 23/19 A301 RMK A01 T02330189  RH  076%=      5-min Rain = 0
KMD1 150404Z 08004KT 23/19 A301 RMK A01 T02330189  RH  076%=      5-min Rain = 0
KMD1 150405Z 07003KT 23/19 A301 RMK A01 T02340189  RH  076%=      5-min Rain = 0
KMD1 150406Z 08003KT 24/19 A301 RMK A01 T02350189  RH  076%=      5-min Rain = 0
KMD1 150407Z 08003KT 24/19 A301 RMK A01 T02350189  RH  075%=      5-min Rain = 0
KMD1 150408Z 09004KT 24/19 A301 RMK A01 T02360189  RH  075%=      5-min Rain = 0
KMD1 150409Z 08004KT 24/19 A301 RMK A01 T02360189  RH  075%=      5-min Rain = 0
KMD1 150410Z 08004KT 24/19 A301 RMK A01 T02360190  RH  075%=      5-min Rain = 0
KMD1 150411Z 08004KT 24/19 A301 RMK A01 T02360190  RH  075%=      5-min Rain = 0
KMD1 150412Z 08003KT 24/19 A301 RMK A01 T02360190  RH  075%=      5-min Rain = 0
KMD1 150413Z 07003KT 24/19 A301 RMK A01 T02360190  RH  075%=      5-min Rain = 0
KMD1 150414Z 08003KT 24/19 A301 RMK A01 T02360190  RH  075%=      5-min Rain = 0
KMD1 150415Z 07004KT 24/19 A301 RMK A01 T02360190  RH  076%=      5-min Rain = 0
KMD1 150416Z 08004KT 24/19 A301 RMK A01 T02360190  RH  076%=      5-min Rain = 0
KMD1 150417Z 07005KT 24/19 A301 RMK A01 T02360190  RH  076%=      5-min Rain = 0
KMD1 150418Z 07005KT 24/19 A301 RMK A01 T02350190  RH  076%=      5-min Rain = 0
KMD1 150419Z 07004KT 24/19 A301 RMK A01 T02350190  RH  076%=      5-min Rain = 0
KMD1 150420Z 07004KT 24/19 A301 RMK A01 T02350189  RH  076%=      5-min Rain = 0
KMD1 150421Z 07004KT 24/19 A301 RMK A01 T02350190  RH  075%=      5-min Rain = 0
KMD1 150422Z 07004KT 24/19 A301 RMK A01 T02360190  RH  075%=      5-min Rain = 0
KMD1 150423Z 07003KT 24/19 A301 RMK A01 T02360190  RH  075%=      5-min Rain = 0
KMD1 150424Z 06003KT 24/19 A301 RMK A01 T02360190  RH  075%=      5-min Rain = 0
KMD1 150425Z 06003KT 24/19 A301 RMK A01 T02370190  RH  075%=      5-min Rain = 0
KMD1 150426Z 05003KT 24/19 A301 RMK A01 T02370189  RH  075%=      5-min Rain = 0
KMD1 150427Z 05003KT 24/19 A301 RMK A01 T02370190  RH  075%=      5-min Rain = 0
KMD1 150428Z 05003KT 24/19 A301 RMK A01 T02380190  RH  074%=      5-min Rain = 0
KMD1 150429Z 06002KT 24/19 A301 RMK A01 T02380189  RH  074%=      5-min Rain = 0
KMD1 150430Z 06003KT 24/19 A301 RMK A01 T02380189  RH  074%=      5-min Rain = 0
KMD1 150431Z 06003KT 24/19 A301 RMK A01 T02390189  RH  074%=      5-min Rain = 0
KMD1 150432Z 06003KT 24/19 A301 RMK A01 T02390189  RH  074%=      5-min Rain = 0
KMD1 150433Z 07003KT 24/19 A301 RMK A01 T02390190  RH  074%=      5-min Rain = 0
KMD1 150434Z 07003KT 24/19 A301 RMK A01 T02390190  RH  074%=      5-min Rain = 0
KMD1 150435Z 07003KT 24/19 A301 RMK A01 T02390190  RH  074%=      5-min Rain = 0
KMD1 150436Z 07003KT 24/19 A301 RMK A01 T02390190  RH  074%=      5-min Rain = 0
KMD1 150437Z 07003KT 24/19 A301 RMK A01 T02390190  RH  074%=      5-min Rain = 0
KMD1 150438Z 08003KT 24/19 A301 RMK A01 T02390190  RH  074%=      5-min Rain = 0
KMD1 150439Z 07003KT 24/19 A301 RMK A01 T02380190  RH  074%=      5-min Rain = 0
KMD1 150440Z 07002KT 24/19 A301 RMK A01 T02370189  RH  074%=      5-min Rain = 0
KMD1 150441Z 06002KT 24/19 A301 RMK A01 T02370189  RH  075%=      5-min Rain = 0
KMD1 150442Z 05002KT 24/19 A301 RMK A01 T02370190  RH  075%=      5-min Rain = 0
KMD1 150443Z 06002KT 24/19 A301 RMK A01 T02370190  RH  075%=      5-min Rain = 0
KMD1 150444Z 05002KT 24/19 A301 RMK A01 T02370190  RH  075%=      5-min Rain = 0
KMD1 150445Z 05002KT 24/19 A301 RMK A01 T02360189  RH  075%=      5-min Rain = 0
KMD1 150446Z 04002KT 24/19 A301 RMK A01 T02360190  RH  075%=      5-min Rain = 0
KMD1 150447Z 02002KT 24/19 A301 RMK A01 T02360189  RH  075%=      5-min Rain = 0
KMD1 150448Z 02002KT 24/19 A301 RMK A01 T02370190  RH  075%=      5-min Rain = 0
KMD1 150449Z 02001KT 24/19 A301 RMK A01 T02370190  RH  075%=      5-min Rain = 0
KMD1 150450Z 03002KT 24/19 A301 RMK A01 T02370189  RH  074%=      5-min Rain = 0
KMD1 150451Z 03002KT 24/19 A301 RMK A01 T02380190  RH  075%=      5-min Rain = 0
KMD1 150452Z 02002KT 24/19 A301 RMK A01 T02380190  RH  074%=      5-min Rain = 0
KMD1 150453Z 02002KT 24/19 A301 RMK A01 T02380189  RH  074%=      5-min Rain = 0
KMD1 150454Z 02002KT 24/19 A301 RMK A01 T02380190  RH  074%=      5-min Rain = 0
KMD1 150455Z 03002KT 24/19 A301 RMK A01 T02370189  RH  074%=      5-min Rain = 0
KMD1 150456Z 03002KT 24/19 A301 RMK A01 T02370190  RH  075%=      5-min Rain = 0
KMD1 150457Z 03002KT 24/19 A301 RMK A01 T02360189  RH  075%=      5-min Rain = 0
KMD1 150458Z 04001KT 24/19 A301 RMK A01 T02360190  RH  075%=      5-min Rain = 0
KMD1 150459Z 03001KT 24/19 A301 RMK A01 T02360190  RH  075%=      5-min Rain = 0

Page generated in 0.1255 seconds.